<?xml version="1.0" encoding="UTF-8" standalone="no" ?>
<gpx xmlns="http://www.topografix.com/GPX/1/1" xmlns:xsi="http://www.w3.org/2001/XMLSchema-instance" xsi:schemaLocation="http://www.topografix.com/GPX/1/1 http://www.topografix.com/GPX/1/1/gpx.xsd" version="1.1" creator="VisuGPX - https://www.visugpx.com">
  <metadata>
    <name>ST_RAD_12km_V1</name>
    <desc><![CDATA[sortie 12km]]></desc>
  </metadata>
  <trk>
    <name><![CDATA[st RA 12km -]]></name>
    <trkseg>
      <trkpt lat="44.3356" lon="2.62931">
        <ele>661.5244141</ele>
        <time>2014-05-14T05:45:28Z</time>
      </trkpt>
      <trkpt lat="44.3356" lon="2.62932">
        <ele>659.6018066</ele>
        <time>2014-05-14T05:45:29Z</time>
      </trkpt>
      <trkpt lat="44.3356" lon="2.62934">
        <ele>657.6791992</ele>
        <time>2014-05-14T05:45:30Z</time>
      </trkpt>
      <trkpt lat="44.33562" lon="2.62956">
        <ele>651.4304199</ele>
        <time>2014-05-14T05:45:36Z</time>
      </trkpt>
      <trkpt lat="44.33567" lon="2.6298">
        <ele>650.949707</ele>
        <time>2014-05-14T05:45:42Z</time>
      </trkpt>
      <trkpt lat="44.33567" lon="2.62996">
        <ele>649.5078125</ele>
        <time>2014-05-14T05:45:46Z</time>
      </trkpt>
      <trkpt lat="44.33568" lon="2.63015">
        <ele>649.0270996</ele>
        <time>2014-05-14T05:45:51Z</time>
      </trkpt>
      <trkpt lat="44.3357" lon="2.63031">
        <ele>648.5463867</ele>
        <time>2014-05-14T05:45:56Z</time>
      </trkpt>
      <trkpt lat="44.33572" lon="2.63037">
        <ele>648.065918</ele>
        <time>2014-05-14T05:45:59Z</time>
      </trkpt>
      <trkpt lat="44.33565" lon="2.63041">
        <ele>647.1044922</ele>
        <time>2014-05-14T05:46:03Z</time>
      </trkpt>
      <trkpt lat="44.33563" lon="2.63048">
        <ele>646.6240234</ele>
        <time>2014-05-14T05:46:07Z</time>
      </trkpt>
      <trkpt lat="44.33565" lon="2.63056">
        <ele>646.6240234</ele>
        <time>2014-05-14T05:46:12Z</time>
      </trkpt>
      <trkpt lat="44.33566" lon="2.63059">
        <ele>646.6240234</ele>
        <time>2014-05-14T05:46:19Z</time>
      </trkpt>
      <trkpt lat="44.33565" lon="2.63056">
        <ele>646.1433105</ele>
        <time>2014-05-14T05:46:23Z</time>
      </trkpt>
      <trkpt lat="44.33564" lon="2.63053">
        <ele>645.1818848</ele>
        <time>2014-05-14T05:46:27Z</time>
      </trkpt>
      <trkpt lat="44.33562" lon="2.63071">
        <ele>644.7011719</ele>
        <time>2014-05-14T05:46:32Z</time>
      </trkpt>
      <trkpt lat="44.33557" lon="2.63094">
        <ele>643.7399902</ele>
        <time>2014-05-14T05:46:38Z</time>
      </trkpt>
      <trkpt lat="44.33552" lon="2.63115">
        <ele>643.2592773</ele>
        <time>2014-05-14T05:46:44Z</time>
      </trkpt>
      <trkpt lat="44.33541" lon="2.6314">
        <ele>641.3366699</ele>
        <time>2014-05-14T05:46:51Z</time>
      </trkpt>
      <trkpt lat="44.33535" lon="2.63156">
        <ele>641.3366699</ele>
        <time>2014-05-14T05:46:56Z</time>
      </trkpt>
      <trkpt lat="44.33529" lon="2.63176">
        <ele>641.8173828</ele>
        <time>2014-05-14T05:47:02Z</time>
      </trkpt>
      <trkpt lat="44.33524" lon="2.63198">
        <ele>641.8173828</ele>
        <time>2014-05-14T05:47:08Z</time>
      </trkpt>
      <trkpt lat="44.33517" lon="2.63224">
        <ele>641.8173828</ele>
        <time>2014-05-14T05:47:15Z</time>
      </trkpt>
      <trkpt lat="44.33512" lon="2.63248">
        <ele>642.2980957</ele>
        <time>2014-05-14T05:47:22Z</time>
      </trkpt>
      <trkpt lat="44.33506" lon="2.63266">
        <ele>642.7788086</ele>
        <time>2014-05-14T05:47:27Z</time>
      </trkpt>
      <trkpt lat="44.335" lon="2.63288">
        <ele>641.8173828</ele>
        <time>2014-05-14T05:47:33Z</time>
      </trkpt>
      <trkpt lat="44.33495" lon="2.63311">
        <ele>640.855957</ele>
        <time>2014-05-14T05:47:39Z</time>
      </trkpt>
      <trkpt lat="44.33489" lon="2.63336">
        <ele>639.4140625</ele>
        <time>2014-05-14T05:47:46Z</time>
      </trkpt>
      <trkpt lat="44.33483" lon="2.63363">
        <ele>638.4528809</ele>
        <time>2014-05-14T05:47:53Z</time>
      </trkpt>
      <trkpt lat="44.3348" lon="2.6339">
        <ele>636.5302734</ele>
        <time>2014-05-14T05:48:00Z</time>
      </trkpt>
      <trkpt lat="44.33478" lon="2.63413">
        <ele>636.0495605</ele>
        <time>2014-05-14T05:48:06Z</time>
      </trkpt>
      <trkpt lat="44.33477" lon="2.63428">
        <ele>637.0107422</ele>
        <time>2014-05-14T05:48:10Z</time>
      </trkpt>
      <trkpt lat="44.33473" lon="2.63446">
        <ele>637.4914551</ele>
        <time>2014-05-14T05:48:15Z</time>
      </trkpt>
      <trkpt lat="44.33467" lon="2.63466">
        <ele>637.0107422</ele>
        <time>2014-05-14T05:48:21Z</time>
      </trkpt>
      <trkpt lat="44.33461" lon="2.63486">
        <ele>636.5302734</ele>
        <time>2014-05-14T05:48:27Z</time>
      </trkpt>
      <trkpt lat="44.33454" lon="2.63508">
        <ele>637.4914551</ele>
        <time>2014-05-14T05:48:33Z</time>
      </trkpt>
      <trkpt lat="44.33448" lon="2.63534">
        <ele>637.0107422</ele>
        <time>2014-05-14T05:48:40Z</time>
      </trkpt>
      <trkpt lat="44.33447" lon="2.63557">
        <ele>636.0495605</ele>
        <time>2014-05-14T05:48:46Z</time>
      </trkpt>
      <trkpt lat="44.33439" lon="2.6358">
        <ele>634.126709</ele>
        <time>2014-05-14T05:48:53Z</time>
      </trkpt>
      <trkpt lat="44.33436" lon="2.63586">
        <ele>634.126709</ele>
        <time>2014-05-14T05:48:55Z</time>
      </trkpt>
      <trkpt lat="44.33424" lon="2.63601">
        <ele>634.6074219</ele>
        <time>2014-05-14T05:49:02Z</time>
      </trkpt>
      <trkpt lat="44.33412" lon="2.63615">
        <ele>635.5686035</ele>
        <time>2014-05-14T05:49:09Z</time>
      </trkpt>
      <trkpt lat="44.33403" lon="2.63626">
        <ele>636.0495605</ele>
        <time>2014-05-14T05:49:15Z</time>
      </trkpt>
      <trkpt lat="44.33397" lon="2.63634">
        <ele>636.5302734</ele>
        <time>2014-05-14T05:49:19Z</time>
      </trkpt>
      <trkpt lat="44.3339" lon="2.63645">
        <ele>638.9335938</ele>
        <time>2014-05-14T05:49:25Z</time>
      </trkpt>
      <trkpt lat="44.33382" lon="2.6366">
        <ele>641.8173828</ele>
        <time>2014-05-14T05:49:32Z</time>
      </trkpt>
      <trkpt lat="44.33373" lon="2.63674">
        <ele>643.7399902</ele>
        <time>2014-05-14T05:49:39Z</time>
      </trkpt>
      <trkpt lat="44.33366" lon="2.63687">
        <ele>645.1818848</ele>
        <time>2014-05-14T05:49:45Z</time>
      </trkpt>
      <trkpt lat="44.3336" lon="2.63701">
        <ele>647.1044922</ele>
        <time>2014-05-14T05:49:51Z</time>
      </trkpt>
      <trkpt lat="44.33353" lon="2.6372">
        <ele>649.5078125</ele>
        <time>2014-05-14T05:49:58Z</time>
      </trkpt>
      <trkpt lat="44.3335" lon="2.63737">
        <ele>651.4304199</ele>
        <time>2014-05-14T05:50:04Z</time>
      </trkpt>
      <trkpt lat="44.33346" lon="2.6375">
        <ele>653.3532715</ele>
        <time>2014-05-14T05:50:09Z</time>
      </trkpt>
      <trkpt lat="44.3334" lon="2.6377">
        <ele>654.795166</ele>
        <time>2014-05-14T05:50:16Z</time>
      </trkpt>
      <trkpt lat="44.33336" lon="2.63786">
        <ele>654.795166</ele>
        <time>2014-05-14T05:50:22Z</time>
      </trkpt>
      <trkpt lat="44.33331" lon="2.63804">
        <ele>654.795166</ele>
        <time>2014-05-14T05:50:29Z</time>
      </trkpt>
      <trkpt lat="44.33325" lon="2.63824">
        <ele>655.7565918</ele>
        <time>2014-05-14T05:50:36Z</time>
      </trkpt>
      <trkpt lat="44.33321" lon="2.63842">
        <ele>656.7177734</ele>
        <time>2014-05-14T05:50:43Z</time>
      </trkpt>
      <trkpt lat="44.33317" lon="2.6386">
        <ele>658.6403809</ele>
        <time>2014-05-14T05:50:49Z</time>
      </trkpt>
      <trkpt lat="44.33312" lon="2.6388">
        <ele>661.5244141</ele>
        <time>2014-05-14T05:50:56Z</time>
      </trkpt>
      <trkpt lat="44.33308" lon="2.63899">
        <ele>662.005127</ele>
        <time>2014-05-14T05:51:03Z</time>
      </trkpt>
      <trkpt lat="44.33304" lon="2.63914">
        <ele>662.9663086</ele>
        <time>2014-05-14T05:51:09Z</time>
      </trkpt>
      <trkpt lat="44.333" lon="2.63932">
        <ele>663.9274902</ele>
        <time>2014-05-14T05:51:15Z</time>
      </trkpt>
      <trkpt lat="44.33297" lon="2.6395">
        <ele>664.4082031</ele>
        <time>2014-05-14T05:51:21Z</time>
      </trkpt>
      <trkpt lat="44.33294" lon="2.63969">
        <ele>666.3308105</ele>
        <time>2014-05-14T05:51:27Z</time>
      </trkpt>
      <trkpt lat="44.3329" lon="2.63996">
        <ele>667.2922363</ele>
        <time>2014-05-14T05:51:36Z</time>
      </trkpt>
      <trkpt lat="44.33284" lon="2.64018">
        <ele>668.2536621</ele>
        <time>2014-05-14T05:51:43Z</time>
      </trkpt>
      <trkpt lat="44.33279" lon="2.64037">
        <ele>669.6958008</ele>
        <time>2014-05-14T05:51:49Z</time>
      </trkpt>
      <trkpt lat="44.33278" lon="2.64055">
        <ele>669.6958008</ele>
        <time>2014-05-14T05:51:54Z</time>
      </trkpt>
      <trkpt lat="44.33275" lon="2.64076">
        <ele>670.1762695</ele>
        <time>2014-05-14T05:52:00Z</time>
      </trkpt>
      <trkpt lat="44.33272" lon="2.64098">
        <ele>671.1376953</ele>
        <time>2014-05-14T05:52:06Z</time>
      </trkpt>
      <trkpt lat="44.33268" lon="2.64117">
        <ele>671.1376953</ele>
        <time>2014-05-14T05:52:12Z</time>
      </trkpt>
      <trkpt lat="44.33263" lon="2.64137">
        <ele>672.5795898</ele>
        <time>2014-05-14T05:52:18Z</time>
      </trkpt>
      <trkpt lat="44.33259" lon="2.64157">
        <ele>673.0603027</ele>
        <time>2014-05-14T05:52:24Z</time>
      </trkpt>
      <trkpt lat="44.33256" lon="2.64172">
        <ele>673.5410156</ele>
        <time>2014-05-14T05:52:28Z</time>
      </trkpt>
      <trkpt lat="44.33253" lon="2.64189">
        <ele>674.0214844</ele>
        <time>2014-05-14T05:52:33Z</time>
      </trkpt>
      <trkpt lat="44.33247" lon="2.64205">
        <ele>673.5410156</ele>
        <time>2014-05-14T05:52:38Z</time>
      </trkpt>
      <trkpt lat="44.3324" lon="2.64224">
        <ele>673.5410156</ele>
        <time>2014-05-14T05:52:44Z</time>
      </trkpt>
      <trkpt lat="44.33233" lon="2.64244">
        <ele>674.9829102</ele>
        <time>2014-05-14T05:52:50Z</time>
      </trkpt>
      <trkpt lat="44.33227" lon="2.64262">
        <ele>676.4248047</ele>
        <time>2014-05-14T05:52:56Z</time>
      </trkpt>
      <trkpt lat="44.3322" lon="2.64277">
        <ele>676.4248047</ele>
        <time>2014-05-14T05:53:01Z</time>
      </trkpt>
      <trkpt lat="44.33214" lon="2.64295">
        <ele>675.9440918</ele>
        <time>2014-05-14T05:53:07Z</time>
      </trkpt>
      <trkpt lat="44.33206" lon="2.64312">
        <ele>675.9440918</ele>
        <time>2014-05-14T05:53:13Z</time>
      </trkpt>
      <trkpt lat="44.332" lon="2.64328">
        <ele>675.4633789</ele>
        <time>2014-05-14T05:53:18Z</time>
      </trkpt>
      <trkpt lat="44.33193" lon="2.64345">
        <ele>675.4633789</ele>
        <time>2014-05-14T05:53:24Z</time>
      </trkpt>
      <trkpt lat="44.33186" lon="2.64364">
        <ele>675.9440918</ele>
        <time>2014-05-14T05:53:30Z</time>
      </trkpt>
      <trkpt lat="44.3318" lon="2.64379">
        <ele>675.4633789</ele>
        <time>2014-05-14T05:53:35Z</time>
      </trkpt>
      <trkpt lat="44.33172" lon="2.64406">
        <ele>674.9829102</ele>
        <time>2014-05-14T05:53:43Z</time>
      </trkpt>
      <trkpt lat="44.33168" lon="2.64422">
        <ele>675.4633789</ele>
        <time>2014-05-14T05:53:48Z</time>
      </trkpt>
      <trkpt lat="44.33162" lon="2.64448">
        <ele>677.3862305</ele>
        <time>2014-05-14T05:53:55Z</time>
      </trkpt>
      <trkpt lat="44.33156" lon="2.64472">
        <ele>677.3862305</ele>
        <time>2014-05-14T05:54:02Z</time>
      </trkpt>
      <trkpt lat="44.33149" lon="2.64487">
        <ele>678.3474121</ele>
        <time>2014-05-14T05:54:07Z</time>
      </trkpt>
      <trkpt lat="44.33143" lon="2.64501">
        <ele>679.7893066</ele>
        <time>2014-05-14T05:54:12Z</time>
      </trkpt>
      <trkpt lat="44.33137" lon="2.64517">
        <ele>680.7507324</ele>
        <time>2014-05-14T05:54:17Z</time>
      </trkpt>
      <trkpt lat="44.33132" lon="2.64534">
        <ele>680.7507324</ele>
        <time>2014-05-14T05:54:22Z</time>
      </trkpt>
      <trkpt lat="44.33126" lon="2.64553">
        <ele>681.7119141</ele>
        <time>2014-05-14T05:54:28Z</time>
      </trkpt>
      <trkpt lat="44.33119" lon="2.64569">
        <ele>683.6345215</ele>
        <time>2014-05-14T05:54:33Z</time>
      </trkpt>
      <trkpt lat="44.33112" lon="2.64584">
        <ele>682.6733398</ele>
        <time>2014-05-14T05:54:38Z</time>
      </trkpt>
      <trkpt lat="44.33107" lon="2.64607">
        <ele>683.1538086</ele>
        <time>2014-05-14T05:54:44Z</time>
      </trkpt>
      <trkpt lat="44.33104" lon="2.64625">
        <ele>683.1538086</ele>
        <time>2014-05-14T05:54:49Z</time>
      </trkpt>
      <trkpt lat="44.33101" lon="2.64643">
        <ele>682.6733398</ele>
        <time>2014-05-14T05:54:54Z</time>
      </trkpt>
      <trkpt lat="44.33097" lon="2.64664">
        <ele>681.7119141</ele>
        <time>2014-05-14T05:55:00Z</time>
      </trkpt>
      <trkpt lat="44.33093" lon="2.64692">
        <ele>679.7893066</ele>
        <time>2014-05-14T05:55:07Z</time>
      </trkpt>
      <trkpt lat="44.33089" lon="2.64709">
        <ele>678.3474121</ele>
        <time>2014-05-14T05:55:12Z</time>
      </trkpt>
      <trkpt lat="44.33085" lon="2.64726">
        <ele>676.9055176</ele>
        <time>2014-05-14T05:55:17Z</time>
      </trkpt>
      <trkpt lat="44.3308" lon="2.64747">
        <ele>675.4633789</ele>
        <time>2014-05-14T05:55:23Z</time>
      </trkpt>
      <trkpt lat="44.33075" lon="2.64774">
        <ele>674.0214844</ele>
        <time>2014-05-14T05:55:30Z</time>
      </trkpt>
      <trkpt lat="44.33074" lon="2.64801">
        <ele>671.1376953</ele>
        <time>2014-05-14T05:55:37Z</time>
      </trkpt>
      <trkpt lat="44.3307" lon="2.64827">
        <ele>668.734375</ele>
        <time>2014-05-14T05:55:44Z</time>
      </trkpt>
      <trkpt lat="44.33063" lon="2.64845">
        <ele>667.2922363</ele>
        <time>2014-05-14T05:55:49Z</time>
      </trkpt>
      <trkpt lat="44.33052" lon="2.6485">
        <ele>665.8503418</ele>
        <time>2014-05-14T05:55:53Z</time>
      </trkpt>
      <trkpt lat="44.33038" lon="2.64848">
        <ele>664.4082031</ele>
        <time>2014-05-14T05:55:58Z</time>
      </trkpt>
      <trkpt lat="44.33022" lon="2.64844">
        <ele>663.4470215</ele>
        <time>2014-05-14T05:56:04Z</time>
      </trkpt>
      <trkpt lat="44.33006" lon="2.6484">
        <ele>662.4855957</ele>
        <time>2014-05-14T05:56:10Z</time>
      </trkpt>
      <trkpt lat="44.32993" lon="2.64834">
        <ele>662.005127</ele>
        <time>2014-05-14T05:56:15Z</time>
      </trkpt>
      <trkpt lat="44.32977" lon="2.64829">
        <ele>661.0437012</ele>
        <time>2014-05-14T05:56:21Z</time>
      </trkpt>
      <trkpt lat="44.32961" lon="2.64825">
        <ele>660.0822754</ele>
        <time>2014-05-14T05:56:27Z</time>
      </trkpt>
      <trkpt lat="44.32945" lon="2.64823">
        <ele>659.1210938</ele>
        <time>2014-05-14T05:56:33Z</time>
      </trkpt>
      <trkpt lat="44.32929" lon="2.6482">
        <ele>659.6018066</ele>
        <time>2014-05-14T05:56:39Z</time>
      </trkpt>
      <trkpt lat="44.32913" lon="2.64817">
        <ele>658.6403809</ele>
        <time>2014-05-14T05:56:45Z</time>
      </trkpt>
      <trkpt lat="44.32898" lon="2.64814">
        <ele>657.6791992</ele>
        <time>2014-05-14T05:56:51Z</time>
      </trkpt>
      <trkpt lat="44.32885" lon="2.6481">
        <ele>658.6403809</ele>
        <time>2014-05-14T05:56:56Z</time>
      </trkpt>
      <trkpt lat="44.32871" lon="2.64808">
        <ele>659.1210938</ele>
        <time>2014-05-14T05:57:01Z</time>
      </trkpt>
      <trkpt lat="44.32858" lon="2.64805">
        <ele>658.6403809</ele>
        <time>2014-05-14T05:57:06Z</time>
      </trkpt>
      <trkpt lat="44.32845" lon="2.64803">
        <ele>658.6403809</ele>
        <time>2014-05-14T05:57:11Z</time>
      </trkpt>
      <trkpt lat="44.32832" lon="2.64803">
        <ele>657.6791992</ele>
        <time>2014-05-14T05:57:16Z</time>
      </trkpt>
      <trkpt lat="44.32815" lon="2.64798">
        <ele>656.7177734</ele>
        <time>2014-05-14T05:57:23Z</time>
      </trkpt>
      <trkpt lat="44.32802" lon="2.64795">
        <ele>654.795166</ele>
        <time>2014-05-14T05:57:28Z</time>
      </trkpt>
      <trkpt lat="44.32785" lon="2.64791">
        <ele>650.4692383</ele>
        <time>2014-05-14T05:57:34Z</time>
      </trkpt>
      <trkpt lat="44.32772" lon="2.64789">
        <ele>648.5463867</ele>
        <time>2014-05-14T05:57:39Z</time>
      </trkpt>
      <trkpt lat="44.32757" lon="2.64788">
        <ele>647.1044922</ele>
        <time>2014-05-14T05:57:45Z</time>
      </trkpt>
      <trkpt lat="44.32744" lon="2.64787">
        <ele>645.6625977</ele>
        <time>2014-05-14T05:57:50Z</time>
      </trkpt>
      <trkpt lat="44.3273" lon="2.64785">
        <ele>644.2207031</ele>
        <time>2014-05-14T05:57:55Z</time>
      </trkpt>
      <trkpt lat="44.32717" lon="2.64788">
        <ele>644.2207031</ele>
        <time>2014-05-14T05:58:00Z</time>
      </trkpt>
      <trkpt lat="44.32706" lon="2.64784">
        <ele>643.7399902</ele>
        <time>2014-05-14T05:58:04Z</time>
      </trkpt>
      <trkpt lat="44.32694" lon="2.64781">
        <ele>643.2592773</ele>
        <time>2014-05-14T05:58:09Z</time>
      </trkpt>
      <trkpt lat="44.3268" lon="2.6478">
        <ele>640.855957</ele>
        <time>2014-05-14T05:58:15Z</time>
      </trkpt>
      <trkpt lat="44.32666" lon="2.6478">
        <ele>640.855957</ele>
        <time>2014-05-14T05:58:21Z</time>
      </trkpt>
      <trkpt lat="44.32651" lon="2.6478">
        <ele>640.855957</ele>
        <time>2014-05-14T05:58:27Z</time>
      </trkpt>
      <trkpt lat="44.32637" lon="2.64783">
        <ele>641.3366699</ele>
        <time>2014-05-14T05:58:33Z</time>
      </trkpt>
      <trkpt lat="44.32626" lon="2.64791">
        <ele>642.7788086</ele>
        <time>2014-05-14T05:58:38Z</time>
      </trkpt>
      <trkpt lat="44.32613" lon="2.64796">
        <ele>643.7399902</ele>
        <time>2014-05-14T05:58:44Z</time>
      </trkpt>
      <trkpt lat="44.32599" lon="2.648">
        <ele>645.6625977</ele>
        <time>2014-05-14T05:58:50Z</time>
      </trkpt>
      <trkpt lat="44.32586" lon="2.64799">
        <ele>646.6240234</ele>
        <time>2014-05-14T05:58:56Z</time>
      </trkpt>
      <trkpt lat="44.32575" lon="2.64802">
        <ele>647.5852051</ele>
        <time>2014-05-14T05:59:01Z</time>
      </trkpt>
      <trkpt lat="44.32563" lon="2.64802">
        <ele>647.5852051</ele>
        <time>2014-05-14T05:59:06Z</time>
      </trkpt>
      <trkpt lat="44.3255" lon="2.64801">
        <ele>648.5463867</ele>
        <time>2014-05-14T05:59:12Z</time>
      </trkpt>
      <trkpt lat="44.32537" lon="2.648">
        <ele>649.9885254</ele>
        <time>2014-05-14T05:59:18Z</time>
      </trkpt>
      <trkpt lat="44.32521" lon="2.64799">
        <ele>650.4692383</ele>
        <time>2014-05-14T05:59:25Z</time>
      </trkpt>
      <trkpt lat="44.32509" lon="2.64796">
        <ele>651.9111328</ele>
        <time>2014-05-14T05:59:31Z</time>
      </trkpt>
      <trkpt lat="44.32498" lon="2.64793">
        <ele>652.8725586</ele>
        <time>2014-05-14T05:59:36Z</time>
      </trkpt>
      <trkpt lat="44.32486" lon="2.64788">
        <ele>653.3532715</ele>
        <time>2014-05-14T05:59:42Z</time>
      </trkpt>
      <trkpt lat="44.32471" lon="2.6478">
        <ele>655.7565918</ele>
        <time>2014-05-14T05:59:49Z</time>
      </trkpt>
      <trkpt lat="44.3246" lon="2.64775">
        <ele>656.7177734</ele>
        <time>2014-05-14T05:59:54Z</time>
      </trkpt>
      <trkpt lat="44.32449" lon="2.64771">
        <ele>657.6791992</ele>
        <time>2014-05-14T05:59:59Z</time>
      </trkpt>
      <trkpt lat="44.32434" lon="2.64765">
        <ele>659.6018066</ele>
        <time>2014-05-14T06:00:06Z</time>
      </trkpt>
      <trkpt lat="44.32419" lon="2.64758">
        <ele>661.0437012</ele>
        <time>2014-05-14T06:00:13Z</time>
      </trkpt>
      <trkpt lat="44.32407" lon="2.6475">
        <ele>661.5244141</ele>
        <time>2014-05-14T06:00:19Z</time>
      </trkpt>
      <trkpt lat="44.32394" lon="2.64744">
        <ele>662.4855957</ele>
        <time>2014-05-14T06:00:25Z</time>
      </trkpt>
      <trkpt lat="44.3238" lon="2.64741">
        <ele>662.9663086</ele>
        <time>2014-05-14T06:00:31Z</time>
      </trkpt>
      <trkpt lat="44.32367" lon="2.6474">
        <ele>663.9274902</ele>
        <time>2014-05-14T06:00:37Z</time>
      </trkpt>
      <trkpt lat="44.32352" lon="2.64744">
        <ele>664.888916</ele>
        <time>2014-05-14T06:00:44Z</time>
      </trkpt>
      <trkpt lat="44.32339" lon="2.64756">
        <ele>665.3696289</ele>
        <time>2014-05-14T06:00:51Z</time>
      </trkpt>
      <trkpt lat="44.32331" lon="2.64769">
        <ele>664.888916</ele>
        <time>2014-05-14T06:00:57Z</time>
      </trkpt>
      <trkpt lat="44.32322" lon="2.64784">
        <ele>665.3696289</ele>
        <time>2014-05-14T06:01:03Z</time>
      </trkpt>
      <trkpt lat="44.32313" lon="2.64803">
        <ele>667.7727051</ele>
        <time>2014-05-14T06:01:09Z</time>
      </trkpt>
      <trkpt lat="44.32303" lon="2.6482">
        <ele>668.734375</ele>
        <time>2014-05-14T06:01:15Z</time>
      </trkpt>
      <trkpt lat="44.32295" lon="2.64811">
        <ele>670.1762695</ele>
        <time>2014-05-14T06:01:20Z</time>
      </trkpt>
      <trkpt lat="44.32294" lon="2.64808">
        <ele>670.1762695</ele>
        <time>2014-05-14T06:01:21Z</time>
      </trkpt>
      <trkpt lat="44.32284" lon="2.64785">
        <ele>671.6181641</ele>
        <time>2014-05-14T06:01:29Z</time>
      </trkpt>
      <trkpt lat="44.32276" lon="2.64763">
        <ele>673.5410156</ele>
        <time>2014-05-14T06:01:36Z</time>
      </trkpt>
      <trkpt lat="44.32272" lon="2.64743">
        <ele>674.5021973</ele>
        <time>2014-05-14T06:01:42Z</time>
      </trkpt>
      <trkpt lat="44.32268" lon="2.64723">
        <ele>675.4633789</ele>
        <time>2014-05-14T06:01:48Z</time>
      </trkpt>
      <trkpt lat="44.32263" lon="2.64705">
        <ele>675.9440918</ele>
        <time>2014-05-14T06:01:54Z</time>
      </trkpt>
      <trkpt lat="44.32255" lon="2.64691">
        <ele>677.8666992</ele>
        <time>2014-05-14T06:02:00Z</time>
      </trkpt>
      <trkpt lat="44.32242" lon="2.64678">
        <ele>680.2700195</ele>
        <time>2014-05-14T06:02:07Z</time>
      </trkpt>
      <trkpt lat="44.32234" lon="2.64669">
        <ele>680.7507324</ele>
        <time>2014-05-14T06:02:12Z</time>
      </trkpt>
      <trkpt lat="44.32224" lon="2.64662">
        <ele>681.2314453</ele>
        <time>2014-05-14T06:02:17Z</time>
      </trkpt>
      <trkpt lat="44.32213" lon="2.64657">
        <ele>681.7119141</ele>
        <time>2014-05-14T06:02:22Z</time>
      </trkpt>
      <trkpt lat="44.32201" lon="2.64654">
        <ele>682.6733398</ele>
        <time>2014-05-14T06:02:28Z</time>
      </trkpt>
      <trkpt lat="44.32187" lon="2.6465">
        <ele>683.6345215</ele>
        <time>2014-05-14T06:02:35Z</time>
      </trkpt>
      <trkpt lat="44.32171" lon="2.64646">
        <ele>683.6345215</ele>
        <time>2014-05-14T06:02:42Z</time>
      </trkpt>
      <trkpt lat="44.3216" lon="2.64644">
        <ele>684.5961914</ele>
        <time>2014-05-14T06:02:47Z</time>
      </trkpt>
      <trkpt lat="44.32154" lon="2.64633">
        <ele>684.5961914</ele>
        <time>2014-05-14T06:02:51Z</time>
      </trkpt>
      <trkpt lat="44.32153" lon="2.64614">
        <ele>685.0769043</ele>
        <time>2014-05-14T06:02:56Z</time>
      </trkpt>
      <trkpt lat="44.32152" lon="2.64597">
        <ele>685.0769043</ele>
        <time>2014-05-14T06:03:01Z</time>
      </trkpt>
      <trkpt lat="44.32145" lon="2.64579">
        <ele>685.0769043</ele>
        <time>2014-05-14T06:03:07Z</time>
      </trkpt>
      <trkpt lat="44.32145" lon="2.6456">
        <ele>685.0769043</ele>
        <time>2014-05-14T06:03:12Z</time>
      </trkpt>
      <trkpt lat="44.32149" lon="2.64539">
        <ele>685.557373</ele>
        <time>2014-05-14T06:03:18Z</time>
      </trkpt>
      <trkpt lat="44.32152" lon="2.64513">
        <ele>685.557373</ele>
        <time>2014-05-14T06:03:25Z</time>
      </trkpt>
      <trkpt lat="44.3215" lon="2.64491">
        <ele>686.5187988</ele>
        <time>2014-05-14T06:03:31Z</time>
      </trkpt>
      <trkpt lat="44.32146" lon="2.64463">
        <ele>686.9992676</ele>
        <time>2014-05-14T06:03:39Z</time>
      </trkpt>
      <trkpt lat="44.32144" lon="2.64438">
        <ele>688.4414063</ele>
        <time>2014-05-14T06:03:46Z</time>
      </trkpt>
      <trkpt lat="44.32143" lon="2.64421">
        <ele>689.4025879</ele>
        <time>2014-05-14T06:03:51Z</time>
      </trkpt>
      <trkpt lat="44.3214" lon="2.64417">
        <ele>688.4414063</ele>
        <time>2014-05-14T06:03:57Z</time>
      </trkpt>
      <trkpt lat="44.32141" lon="2.64418">
        <ele>688.9221191</ele>
        <time>2014-05-14T06:04:03Z</time>
      </trkpt>
      <trkpt lat="44.32144" lon="2.64419">
        <ele>687.9606934</ele>
        <time>2014-05-14T06:04:07Z</time>
      </trkpt>
      <trkpt lat="44.32145" lon="2.64417">
        <ele>687.9606934</ele>
        <time>2014-05-14T06:04:08Z</time>
      </trkpt>
      <trkpt lat="44.32145" lon="2.64396">
        <ele>687.9606934</ele>
        <time>2014-05-14T06:04:15Z</time>
      </trkpt>
      <trkpt lat="44.32144" lon="2.64378">
        <ele>687.9606934</ele>
        <time>2014-05-14T06:04:21Z</time>
      </trkpt>
      <trkpt lat="44.32145" lon="2.64363">
        <ele>687.9606934</ele>
        <time>2014-05-14T06:04:26Z</time>
      </trkpt>
      <trkpt lat="44.32144" lon="2.6434">
        <ele>688.4414063</ele>
        <time>2014-05-14T06:04:33Z</time>
      </trkpt>
      <trkpt lat="44.32143" lon="2.64318">
        <ele>689.4025879</ele>
        <time>2014-05-14T06:04:40Z</time>
      </trkpt>
      <trkpt lat="44.32142" lon="2.64296">
        <ele>689.4025879</ele>
        <time>2014-05-14T06:04:47Z</time>
      </trkpt>
      <trkpt lat="44.32141" lon="2.6428">
        <ele>688.9221191</ele>
        <time>2014-05-14T06:04:52Z</time>
      </trkpt>
      <trkpt lat="44.3214" lon="2.64259">
        <ele>688.9221191</ele>
        <time>2014-05-14T06:04:58Z</time>
      </trkpt>
      <trkpt lat="44.32138" lon="2.6424">
        <ele>689.4025879</ele>
        <time>2014-05-14T06:05:04Z</time>
      </trkpt>
      <trkpt lat="44.32137" lon="2.64219">
        <ele>689.8833008</ele>
        <time>2014-05-14T06:05:10Z</time>
      </trkpt>
      <trkpt lat="44.32135" lon="2.64198">
        <ele>689.4025879</ele>
        <time>2014-05-14T06:05:16Z</time>
      </trkpt>
      <trkpt lat="44.32134" lon="2.64174">
        <ele>687.9606934</ele>
        <time>2014-05-14T06:05:22Z</time>
      </trkpt>
      <trkpt lat="44.32132" lon="2.64145">
        <ele>687.9606934</ele>
        <time>2014-05-14T06:05:28Z</time>
      </trkpt>
      <trkpt lat="44.32131" lon="2.64122">
        <ele>687.9606934</ele>
        <time>2014-05-14T06:05:33Z</time>
      </trkpt>
      <trkpt lat="44.32126" lon="2.64093">
        <ele>687.9606934</ele>
        <time>2014-05-14T06:05:39Z</time>
      </trkpt>
      <trkpt lat="44.32124" lon="2.64064">
        <ele>687.9606934</ele>
        <time>2014-05-14T06:05:45Z</time>
      </trkpt>
      <trkpt lat="44.32124" lon="2.64036">
        <ele>687.9606934</ele>
        <time>2014-05-14T06:05:51Z</time>
      </trkpt>
      <trkpt lat="44.32125" lon="2.64013">
        <ele>688.9221191</ele>
        <time>2014-05-14T06:05:56Z</time>
      </trkpt>
      <trkpt lat="44.32127" lon="2.63985">
        <ele>688.9221191</ele>
        <time>2014-05-14T06:06:02Z</time>
      </trkpt>
      <trkpt lat="44.32128" lon="2.63961">
        <ele>689.4025879</ele>
        <time>2014-05-14T06:06:07Z</time>
      </trkpt>
      <trkpt lat="44.3213" lon="2.63928">
        <ele>690.8444824</ele>
        <time>2014-05-14T06:06:14Z</time>
      </trkpt>
      <trkpt lat="44.32131" lon="2.639">
        <ele>692.767334</ele>
        <time>2014-05-14T06:06:20Z</time>
      </trkpt>
      <trkpt lat="44.32132" lon="2.63876">
        <ele>693.7285156</ele>
        <time>2014-05-14T06:06:25Z</time>
      </trkpt>
      <trkpt lat="44.32133" lon="2.63852">
        <ele>694.6896973</ele>
        <time>2014-05-14T06:06:30Z</time>
      </trkpt>
      <trkpt lat="44.32135" lon="2.63827">
        <ele>695.651123</ele>
        <time>2014-05-14T06:06:35Z</time>
      </trkpt>
      <trkpt lat="44.32136" lon="2.63808">
        <ele>697.0930176</ele>
        <time>2014-05-14T06:06:39Z</time>
      </trkpt>
      <trkpt lat="44.32137" lon="2.63779">
        <ele>698.5349121</ele>
        <time>2014-05-14T06:06:45Z</time>
      </trkpt>
      <trkpt lat="44.32141" lon="2.63751">
        <ele>699.4963379</ele>
        <time>2014-05-14T06:06:51Z</time>
      </trkpt>
      <trkpt lat="44.32147" lon="2.63729">
        <ele>699.015625</ele>
        <time>2014-05-14T06:06:56Z</time>
      </trkpt>
      <trkpt lat="44.32157" lon="2.63709">
        <ele>699.015625</ele>
        <time>2014-05-14T06:07:01Z</time>
      </trkpt>
      <trkpt lat="44.32168" lon="2.63688">
        <ele>696.1318359</ele>
        <time>2014-05-14T06:07:07Z</time>
      </trkpt>
      <trkpt lat="44.32178" lon="2.6367">
        <ele>694.6896973</ele>
        <time>2014-05-14T06:07:12Z</time>
      </trkpt>
      <trkpt lat="44.32188" lon="2.63651">
        <ele>693.7285156</ele>
        <time>2014-05-14T06:07:17Z</time>
      </trkpt>
      <trkpt lat="44.322" lon="2.63629">
        <ele>692.767334</ele>
        <time>2014-05-14T06:07:23Z</time>
      </trkpt>
      <trkpt lat="44.32212" lon="2.63607">
        <ele>692.2866211</ele>
        <time>2014-05-14T06:07:29Z</time>
      </trkpt>
      <trkpt lat="44.32221" lon="2.63587">
        <ele>692.2866211</ele>
        <time>2014-05-14T06:07:34Z</time>
      </trkpt>
      <trkpt lat="44.32231" lon="2.63569">
        <ele>692.2866211</ele>
        <time>2014-05-14T06:07:39Z</time>
      </trkpt>
      <trkpt lat="44.32242" lon="2.63549">
        <ele>691.8059082</ele>
        <time>2014-05-14T06:07:44Z</time>
      </trkpt>
      <trkpt lat="44.32254" lon="2.63525">
        <ele>691.8059082</ele>
        <time>2014-05-14T06:07:50Z</time>
      </trkpt>
      <trkpt lat="44.32269" lon="2.63496">
        <ele>691.3251953</ele>
        <time>2014-05-14T06:07:57Z</time>
      </trkpt>
      <trkpt lat="44.32279" lon="2.63477">
        <ele>691.3251953</ele>
        <time>2014-05-14T06:08:02Z</time>
      </trkpt>
      <trkpt lat="44.32291" lon="2.63455">
        <ele>690.8444824</ele>
        <time>2014-05-14T06:08:08Z</time>
      </trkpt>
      <trkpt lat="44.32304" lon="2.63433">
        <ele>689.8833008</ele>
        <time>2014-05-14T06:08:14Z</time>
      </trkpt>
      <trkpt lat="44.32314" lon="2.63412">
        <ele>689.4025879</ele>
        <time>2014-05-14T06:08:19Z</time>
      </trkpt>
      <trkpt lat="44.32326" lon="2.63388">
        <ele>688.4414063</ele>
        <time>2014-05-14T06:08:25Z</time>
      </trkpt>
      <trkpt lat="44.32336" lon="2.63368">
        <ele>687.4799805</ele>
        <time>2014-05-14T06:08:30Z</time>
      </trkpt>
      <trkpt lat="44.32348" lon="2.63345">
        <ele>686.9992676</ele>
        <time>2014-05-14T06:08:36Z</time>
      </trkpt>
      <trkpt lat="44.3236" lon="2.63316">
        <ele>686.5187988</ele>
        <time>2014-05-14T06:08:43Z</time>
      </trkpt>
      <trkpt lat="44.3237" lon="2.63295">
        <ele>686.0380859</ele>
        <time>2014-05-14T06:08:48Z</time>
      </trkpt>
      <trkpt lat="44.32379" lon="2.63273">
        <ele>685.0769043</ele>
        <time>2014-05-14T06:08:53Z</time>
      </trkpt>
      <trkpt lat="44.32391" lon="2.63249">
        <ele>684.5961914</ele>
        <time>2014-05-14T06:08:59Z</time>
      </trkpt>
      <trkpt lat="44.324" lon="2.63228">
        <ele>684.1154785</ele>
        <time>2014-05-14T06:09:04Z</time>
      </trkpt>
      <trkpt lat="44.32412" lon="2.63206">
        <ele>683.1538086</ele>
        <time>2014-05-14T06:09:10Z</time>
      </trkpt>
      <trkpt lat="44.32425" lon="2.63177">
        <ele>682.6733398</ele>
        <time>2014-05-14T06:09:17Z</time>
      </trkpt>
      <trkpt lat="44.32438" lon="2.63148">
        <ele>681.2314453</ele>
        <time>2014-05-14T06:09:24Z</time>
      </trkpt>
      <trkpt lat="44.3245" lon="2.63122">
        <ele>679.7893066</ele>
        <time>2014-05-14T06:09:30Z</time>
      </trkpt>
      <trkpt lat="44.3246" lon="2.63097">
        <ele>679.3085938</ele>
        <time>2014-05-14T06:09:36Z</time>
      </trkpt>
      <trkpt lat="44.32469" lon="2.6307">
        <ele>679.3085938</ele>
        <time>2014-05-14T06:09:42Z</time>
      </trkpt>
      <trkpt lat="44.32476" lon="2.63042">
        <ele>679.3085938</ele>
        <time>2014-05-14T06:09:48Z</time>
      </trkpt>
      <trkpt lat="44.32479" lon="2.6302">
        <ele>678.828125</ele>
        <time>2014-05-14T06:09:53Z</time>
      </trkpt>
      <trkpt lat="44.32481" lon="2.62999">
        <ele>678.828125</ele>
        <time>2014-05-14T06:09:58Z</time>
      </trkpt>
      <trkpt lat="44.32484" lon="2.62974">
        <ele>679.3085938</ele>
        <time>2014-05-14T06:10:03Z</time>
      </trkpt>
      <trkpt lat="44.3249" lon="2.6295">
        <ele>679.3085938</ele>
        <time>2014-05-14T06:10:08Z</time>
      </trkpt>
      <trkpt lat="44.32495" lon="2.62928">
        <ele>679.3085938</ele>
        <time>2014-05-14T06:10:13Z</time>
      </trkpt>
      <trkpt lat="44.32502" lon="2.62903">
        <ele>678.828125</ele>
        <time>2014-05-14T06:10:19Z</time>
      </trkpt>
      <trkpt lat="44.32508" lon="2.62883">
        <ele>678.3474121</ele>
        <time>2014-05-14T06:10:24Z</time>
      </trkpt>
      <trkpt lat="44.32513" lon="2.62865">
        <ele>677.3862305</ele>
        <time>2014-05-14T06:10:28Z</time>
      </trkpt>
      <trkpt lat="44.3252" lon="2.62844">
        <ele>677.8666992</ele>
        <time>2014-05-14T06:10:33Z</time>
      </trkpt>
      <trkpt lat="44.3253" lon="2.62823">
        <ele>677.3862305</ele>
        <time>2014-05-14T06:10:39Z</time>
      </trkpt>
      <trkpt lat="44.32533" lon="2.62808">
        <ele>677.3862305</ele>
        <time>2014-05-14T06:10:45Z</time>
      </trkpt>
      <trkpt lat="44.32536" lon="2.62796">
        <ele>677.8666992</ele>
        <time>2014-05-14T06:10:50Z</time>
      </trkpt>
      <trkpt lat="44.32541" lon="2.62779">
        <ele>677.8666992</ele>
        <time>2014-05-14T06:10:56Z</time>
      </trkpt>
      <trkpt lat="44.32545" lon="2.62761">
        <ele>678.3474121</ele>
        <time>2014-05-14T06:11:03Z</time>
      </trkpt>
      <trkpt lat="44.32549" lon="2.62744">
        <ele>678.828125</ele>
        <time>2014-05-14T06:11:09Z</time>
      </trkpt>
      <trkpt lat="44.32554" lon="2.62725">
        <ele>679.3085938</ele>
        <time>2014-05-14T06:11:16Z</time>
      </trkpt>
      <trkpt lat="44.32559" lon="2.62704">
        <ele>678.828125</ele>
        <time>2014-05-14T06:11:23Z</time>
      </trkpt>
      <trkpt lat="44.32563" lon="2.62689">
        <ele>678.3474121</ele>
        <time>2014-05-14T06:11:28Z</time>
      </trkpt>
      <trkpt lat="44.32568" lon="2.62675">
        <ele>677.3862305</ele>
        <time>2014-05-14T06:11:33Z</time>
      </trkpt>
      <trkpt lat="44.32574" lon="2.62656">
        <ele>675.9440918</ele>
        <time>2014-05-14T06:11:40Z</time>
      </trkpt>
      <trkpt lat="44.32579" lon="2.62642">
        <ele>675.4633789</ele>
        <time>2014-05-14T06:11:45Z</time>
      </trkpt>
      <trkpt lat="44.32585" lon="2.62627">
        <ele>674.5021973</ele>
        <time>2014-05-14T06:11:51Z</time>
      </trkpt>
      <trkpt lat="44.32589" lon="2.62612">
        <ele>674.5021973</ele>
        <time>2014-05-14T06:11:56Z</time>
      </trkpt>
      <trkpt lat="44.32593" lon="2.62592">
        <ele>674.5021973</ele>
        <time>2014-05-14T06:12:02Z</time>
      </trkpt>
      <trkpt lat="44.32595" lon="2.62576">
        <ele>673.5410156</ele>
        <time>2014-05-14T06:12:07Z</time>
      </trkpt>
      <trkpt lat="44.32597" lon="2.62558">
        <ele>673.0603027</ele>
        <time>2014-05-14T06:12:13Z</time>
      </trkpt>
      <trkpt lat="44.32599" lon="2.62535">
        <ele>673.0603027</ele>
        <time>2014-05-14T06:12:20Z</time>
      </trkpt>
      <trkpt lat="44.326" lon="2.62511">
        <ele>673.0603027</ele>
        <time>2014-05-14T06:12:27Z</time>
      </trkpt>
      <trkpt lat="44.32601" lon="2.6249">
        <ele>673.5410156</ele>
        <time>2014-05-14T06:12:33Z</time>
      </trkpt>
      <trkpt lat="44.32601" lon="2.62474">
        <ele>673.5410156</ele>
        <time>2014-05-14T06:12:38Z</time>
      </trkpt>
      <trkpt lat="44.32601" lon="2.62453">
        <ele>673.5410156</ele>
        <time>2014-05-14T06:12:44Z</time>
      </trkpt>
      <trkpt lat="44.32601" lon="2.62436">
        <ele>673.5410156</ele>
        <time>2014-05-14T06:12:49Z</time>
      </trkpt>
      <trkpt lat="44.32601" lon="2.6242">
        <ele>673.0603027</ele>
        <time>2014-05-14T06:12:54Z</time>
      </trkpt>
      <trkpt lat="44.326" lon="2.62397">
        <ele>671.6181641</ele>
        <time>2014-05-14T06:13:01Z</time>
      </trkpt>
      <trkpt lat="44.32601" lon="2.62379">
        <ele>669.6958008</ele>
        <time>2014-05-14T06:13:06Z</time>
      </trkpt>
      <trkpt lat="44.32603" lon="2.62357">
        <ele>666.8115234</ele>
        <time>2014-05-14T06:13:12Z</time>
      </trkpt>
      <trkpt lat="44.32604" lon="2.62332">
        <ele>664.888916</ele>
        <time>2014-05-14T06:13:19Z</time>
      </trkpt>
      <trkpt lat="44.32606" lon="2.62311">
        <ele>663.4470215</ele>
        <time>2014-05-14T06:13:25Z</time>
      </trkpt>
      <trkpt lat="44.32606" lon="2.62292">
        <ele>663.9274902</ele>
        <time>2014-05-14T06:13:30Z</time>
      </trkpt>
      <trkpt lat="44.32603" lon="2.62271">
        <ele>663.9274902</ele>
        <time>2014-05-14T06:13:36Z</time>
      </trkpt>
      <trkpt lat="44.32599" lon="2.6225">
        <ele>664.4082031</ele>
        <time>2014-05-14T06:13:42Z</time>
      </trkpt>
      <trkpt lat="44.32595" lon="2.6223">
        <ele>664.888916</ele>
        <time>2014-05-14T06:13:48Z</time>
      </trkpt>
      <trkpt lat="44.32591" lon="2.62211">
        <ele>664.4082031</ele>
        <time>2014-05-14T06:13:54Z</time>
      </trkpt>
      <trkpt lat="44.32589" lon="2.62195">
        <ele>664.888916</ele>
        <time>2014-05-14T06:13:59Z</time>
      </trkpt>
      <trkpt lat="44.32587" lon="2.62173">
        <ele>664.888916</ele>
        <time>2014-05-14T06:14:05Z</time>
      </trkpt>
      <trkpt lat="44.32585" lon="2.62155">
        <ele>665.3696289</ele>
        <time>2014-05-14T06:14:10Z</time>
      </trkpt>
      <trkpt lat="44.32582" lon="2.62134">
        <ele>665.8503418</ele>
        <time>2014-05-14T06:14:16Z</time>
      </trkpt>
      <trkpt lat="44.32581" lon="2.62114">
        <ele>666.8115234</ele>
        <time>2014-05-14T06:14:22Z</time>
      </trkpt>
      <trkpt lat="44.32583" lon="2.62096">
        <ele>667.2922363</ele>
        <time>2014-05-14T06:14:27Z</time>
      </trkpt>
      <trkpt lat="44.32588" lon="2.6208">
        <ele>665.8503418</ele>
        <time>2014-05-14T06:14:31Z</time>
      </trkpt>
      <trkpt lat="44.32598" lon="2.62058">
        <ele>663.9274902</ele>
        <time>2014-05-14T06:14:36Z</time>
      </trkpt>
      <trkpt lat="44.32608" lon="2.62038">
        <ele>660.5629883</ele>
        <time>2014-05-14T06:14:41Z</time>
      </trkpt>
      <trkpt lat="44.32615" lon="2.62016">
        <ele>659.1210938</ele>
        <time>2014-05-14T06:14:46Z</time>
      </trkpt>
      <trkpt lat="44.32623" lon="2.61991">
        <ele>657.6791992</ele>
        <time>2014-05-14T06:14:52Z</time>
      </trkpt>
      <trkpt lat="44.32631" lon="2.6197">
        <ele>656.2370605</ele>
        <time>2014-05-14T06:14:57Z</time>
      </trkpt>
      <trkpt lat="44.32641" lon="2.61945">
        <ele>654.3146973</ele>
        <time>2014-05-14T06:15:03Z</time>
      </trkpt>
      <trkpt lat="44.32648" lon="2.61924">
        <ele>653.3532715</ele>
        <time>2014-05-14T06:15:08Z</time>
      </trkpt>
      <trkpt lat="44.32653" lon="2.61909">
        <ele>653.3532715</ele>
        <time>2014-05-14T06:15:12Z</time>
      </trkpt>
      <trkpt lat="44.32658" lon="2.61887">
        <ele>652.8725586</ele>
        <time>2014-05-14T06:15:17Z</time>
      </trkpt>
      <trkpt lat="44.32663" lon="2.61866">
        <ele>653.8339844</ele>
        <time>2014-05-14T06:15:22Z</time>
      </trkpt>
      <trkpt lat="44.32667" lon="2.61843">
        <ele>653.3532715</ele>
        <time>2014-05-14T06:15:27Z</time>
      </trkpt>
      <trkpt lat="44.32672" lon="2.61816">
        <ele>654.795166</ele>
        <time>2014-05-14T06:15:33Z</time>
      </trkpt>
      <trkpt lat="44.32675" lon="2.61793">
        <ele>655.7565918</ele>
        <time>2014-05-14T06:15:38Z</time>
      </trkpt>
      <trkpt lat="44.3268" lon="2.61772">
        <ele>654.795166</ele>
        <time>2014-05-14T06:15:43Z</time>
      </trkpt>
      <trkpt lat="44.32683" lon="2.61754">
        <ele>654.3146973</ele>
        <time>2014-05-14T06:15:47Z</time>
      </trkpt>
      <trkpt lat="44.32688" lon="2.61727">
        <ele>654.3146973</ele>
        <time>2014-05-14T06:15:53Z</time>
      </trkpt>
      <trkpt lat="44.32692" lon="2.61701">
        <ele>653.8339844</ele>
        <time>2014-05-14T06:15:58Z</time>
      </trkpt>
      <trkpt lat="44.32695" lon="2.61681">
        <ele>655.2758789</ele>
        <time>2014-05-14T06:16:02Z</time>
      </trkpt>
      <trkpt lat="44.32701" lon="2.61652">
        <ele>657.1984863</ele>
        <time>2014-05-14T06:16:08Z</time>
      </trkpt>
      <trkpt lat="44.32705" lon="2.6163">
        <ele>659.1210938</ele>
        <time>2014-05-14T06:16:13Z</time>
      </trkpt>
      <trkpt lat="44.32708" lon="2.61606">
        <ele>660.5629883</ele>
        <time>2014-05-14T06:16:18Z</time>
      </trkpt>
      <trkpt lat="44.32714" lon="2.61578">
        <ele>661.0437012</ele>
        <time>2014-05-14T06:16:24Z</time>
      </trkpt>
      <trkpt lat="44.3272" lon="2.61548">
        <ele>661.5244141</ele>
        <time>2014-05-14T06:16:30Z</time>
      </trkpt>
      <trkpt lat="44.32724" lon="2.61524">
        <ele>662.4855957</ele>
        <time>2014-05-14T06:16:35Z</time>
      </trkpt>
      <trkpt lat="44.32729" lon="2.61501">
        <ele>662.9663086</ele>
        <time>2014-05-14T06:16:40Z</time>
      </trkpt>
      <trkpt lat="44.32735" lon="2.61479">
        <ele>662.9663086</ele>
        <time>2014-05-14T06:16:45Z</time>
      </trkpt>
      <trkpt lat="44.32742" lon="2.61453">
        <ele>663.4470215</ele>
        <time>2014-05-14T06:16:51Z</time>
      </trkpt>
      <trkpt lat="44.32748" lon="2.61427">
        <ele>662.9663086</ele>
        <time>2014-05-14T06:16:57Z</time>
      </trkpt>
      <trkpt lat="44.32751" lon="2.61408">
        <ele>663.4470215</ele>
        <time>2014-05-14T06:17:01Z</time>
      </trkpt>
      <trkpt lat="44.32758" lon="2.61379">
        <ele>663.4470215</ele>
        <time>2014-05-14T06:17:07Z</time>
      </trkpt>
      <trkpt lat="44.32766" lon="2.6135">
        <ele>663.4470215</ele>
        <time>2014-05-14T06:17:13Z</time>
      </trkpt>
      <trkpt lat="44.32774" lon="2.61329">
        <ele>662.4855957</ele>
        <time>2014-05-14T06:17:18Z</time>
      </trkpt>
      <trkpt lat="44.32785" lon="2.61302">
        <ele>662.4855957</ele>
        <time>2014-05-14T06:17:24Z</time>
      </trkpt>
      <trkpt lat="44.32792" lon="2.6128">
        <ele>662.005127</ele>
        <time>2014-05-14T06:17:29Z</time>
      </trkpt>
      <trkpt lat="44.32801" lon="2.61257">
        <ele>661.5244141</ele>
        <time>2014-05-14T06:17:34Z</time>
      </trkpt>
      <trkpt lat="44.32812" lon="2.61237">
        <ele>660.5629883</ele>
        <time>2014-05-14T06:17:39Z</time>
      </trkpt>
      <trkpt lat="44.32823" lon="2.61215">
        <ele>659.1210938</ele>
        <time>2014-05-14T06:17:44Z</time>
      </trkpt>
      <trkpt lat="44.32837" lon="2.61192">
        <ele>659.1210938</ele>
        <time>2014-05-14T06:17:50Z</time>
      </trkpt>
      <trkpt lat="44.32849" lon="2.61174">
        <ele>659.6018066</ele>
        <time>2014-05-14T06:17:55Z</time>
      </trkpt>
      <trkpt lat="44.32865" lon="2.61147">
        <ele>657.6791992</ele>
        <time>2014-05-14T06:18:02Z</time>
      </trkpt>
      <trkpt lat="44.32879" lon="2.61124">
        <ele>655.2758789</ele>
        <time>2014-05-14T06:18:08Z</time>
      </trkpt>
      <trkpt lat="44.32894" lon="2.61102">
        <ele>654.795166</ele>
        <time>2014-05-14T06:18:14Z</time>
      </trkpt>
      <trkpt lat="44.32906" lon="2.61084">
        <ele>654.795166</ele>
        <time>2014-05-14T06:18:19Z</time>
      </trkpt>
      <trkpt lat="44.32919" lon="2.61068">
        <ele>654.3146973</ele>
        <time>2014-05-14T06:18:24Z</time>
      </trkpt>
      <trkpt lat="44.32932" lon="2.61051">
        <ele>653.8339844</ele>
        <time>2014-05-14T06:18:29Z</time>
      </trkpt>
      <trkpt lat="44.32949" lon="2.61032">
        <ele>653.3532715</ele>
        <time>2014-05-14T06:18:35Z</time>
      </trkpt>
      <trkpt lat="44.32963" lon="2.61018">
        <ele>653.3532715</ele>
        <time>2014-05-14T06:18:40Z</time>
      </trkpt>
      <trkpt lat="44.32982" lon="2.60997">
        <ele>650.949707</ele>
        <time>2014-05-14T06:18:47Z</time>
      </trkpt>
      <trkpt lat="44.33002" lon="2.60979">
        <ele>648.5463867</ele>
        <time>2014-05-14T06:18:54Z</time>
      </trkpt>
      <trkpt lat="44.33018" lon="2.60969">
        <ele>647.5852051</ele>
        <time>2014-05-14T06:18:59Z</time>
      </trkpt>
      <trkpt lat="44.33038" lon="2.60956">
        <ele>646.1433105</ele>
        <time>2014-05-14T06:19:05Z</time>
      </trkpt>
      <trkpt lat="44.33054" lon="2.60948">
        <ele>646.1433105</ele>
        <time>2014-05-14T06:19:10Z</time>
      </trkpt>
      <trkpt lat="44.33066" lon="2.60937">
        <ele>646.1433105</ele>
        <time>2014-05-14T06:19:14Z</time>
      </trkpt>
      <trkpt lat="44.33087" lon="2.60911">
        <ele>643.2592773</ele>
        <time>2014-05-14T06:19:22Z</time>
      </trkpt>
      <trkpt lat="44.33097" lon="2.60899">
        <ele>640.855957</ele>
        <time>2014-05-14T06:19:26Z</time>
      </trkpt>
      <trkpt lat="44.33113" lon="2.60881">
        <ele>638.9335938</ele>
        <time>2014-05-14T06:19:32Z</time>
      </trkpt>
      <trkpt lat="44.33126" lon="2.60867">
        <ele>638.9335938</ele>
        <time>2014-05-14T06:19:37Z</time>
      </trkpt>
      <trkpt lat="44.33143" lon="2.60851">
        <ele>638.9335938</ele>
        <time>2014-05-14T06:19:43Z</time>
      </trkpt>
      <trkpt lat="44.3316" lon="2.60836">
        <ele>638.9335938</ele>
        <time>2014-05-14T06:19:49Z</time>
      </trkpt>
      <trkpt lat="44.33173" lon="2.60825">
        <ele>638.4528809</ele>
        <time>2014-05-14T06:19:53Z</time>
      </trkpt>
      <trkpt lat="44.33186" lon="2.6081">
        <ele>637.0107422</ele>
        <time>2014-05-14T06:19:58Z</time>
      </trkpt>
      <trkpt lat="44.33197" lon="2.6079">
        <ele>635.5686035</ele>
        <time>2014-05-14T06:20:03Z</time>
      </trkpt>
      <trkpt lat="44.33208" lon="2.60772">
        <ele>634.126709</ele>
        <time>2014-05-14T06:20:08Z</time>
      </trkpt>
      <trkpt lat="44.33218" lon="2.60753">
        <ele>633.1652832</ele>
        <time>2014-05-14T06:20:13Z</time>
      </trkpt>
      <trkpt lat="44.3322" lon="2.60732">
        <ele>632.2041016</ele>
        <time>2014-05-14T06:20:18Z</time>
      </trkpt>
      <trkpt lat="44.33219" lon="2.60728">
        <ele>632.2041016</ele>
        <time>2014-05-14T06:20:19Z</time>
      </trkpt>
      <trkpt lat="44.33219" lon="2.60718">
        <ele>634.126709</ele>
        <time>2014-05-14T06:22:28Z</time>
      </trkpt>
      <trkpt lat="44.3322" lon="2.60718">
        <ele>634.126709</ele>
        <time>2014-05-14T06:22:29Z</time>
      </trkpt>
      <trkpt lat="44.33224" lon="2.60718">
        <ele>633.6459961</ele>
        <time>2014-05-14T06:22:30Z</time>
      </trkpt>
      <trkpt lat="44.33234" lon="2.60709">
        <ele>632.6848145</ele>
        <time>2014-05-14T06:22:35Z</time>
      </trkpt>
      <trkpt lat="44.33239" lon="2.60701">
        <ele>631.2429199</ele>
        <time>2014-05-14T06:22:38Z</time>
      </trkpt>
      <trkpt lat="44.33254" lon="2.60683">
        <ele>628.8395996</ele>
        <time>2014-05-14T06:22:45Z</time>
      </trkpt>
      <trkpt lat="44.33262" lon="2.60667">
        <ele>628.3588867</ele>
        <time>2014-05-14T06:22:50Z</time>
      </trkpt>
      <trkpt lat="44.3327" lon="2.60652">
        <ele>627.8781738</ele>
        <time>2014-05-14T06:22:55Z</time>
      </trkpt>
      <trkpt lat="44.33281" lon="2.6064">
        <ele>626.9169922</ele>
        <time>2014-05-14T06:23:00Z</time>
      </trkpt>
      <trkpt lat="44.33293" lon="2.60633">
        <ele>624.9943848</ele>
        <time>2014-05-14T06:23:05Z</time>
      </trkpt>
      <trkpt lat="44.33305" lon="2.60625">
        <ele>623.5524902</ele>
        <time>2014-05-14T06:23:10Z</time>
      </trkpt>
      <trkpt lat="44.33318" lon="2.6062">
        <ele>622.1103516</ele>
        <time>2014-05-14T06:23:15Z</time>
      </trkpt>
      <trkpt lat="44.33332" lon="2.60617">
        <ele>620.1877441</ele>
        <time>2014-05-14T06:23:20Z</time>
      </trkpt>
      <trkpt lat="44.33345" lon="2.60613">
        <ele>619.2263184</ele>
        <time>2014-05-14T06:23:25Z</time>
      </trkpt>
      <trkpt lat="44.33361" lon="2.60606">
        <ele>617.3037109</ele>
        <time>2014-05-14T06:23:31Z</time>
      </trkpt>
      <trkpt lat="44.33375" lon="2.60605">
        <ele>614.9003906</ele>
        <time>2014-05-14T06:23:36Z</time>
      </trkpt>
      <trkpt lat="44.33389" lon="2.60608">
        <ele>613.4584961</ele>
        <time>2014-05-14T06:23:41Z</time>
      </trkpt>
      <trkpt lat="44.33403" lon="2.60611">
        <ele>612.0166016</ele>
        <time>2014-05-14T06:23:46Z</time>
      </trkpt>
      <trkpt lat="44.33416" lon="2.60614">
        <ele>611.0551758</ele>
        <time>2014-05-14T06:23:51Z</time>
      </trkpt>
      <trkpt lat="44.33432" lon="2.60614">
        <ele>611.5358887</ele>
        <time>2014-05-14T06:23:57Z</time>
      </trkpt>
      <trkpt lat="44.33441" lon="2.60622">
        <ele>610.5744629</ele>
        <time>2014-05-14T06:24:01Z</time>
      </trkpt>
      <trkpt lat="44.33447" lon="2.60644">
        <ele>609.6132813</ele>
        <time>2014-05-14T06:24:07Z</time>
      </trkpt>
      <trkpt lat="44.33449" lon="2.60667">
        <ele>609.6132813</ele>
        <time>2014-05-14T06:24:13Z</time>
      </trkpt>
      <trkpt lat="44.33452" lon="2.60685">
        <ele>609.6132813</ele>
        <time>2014-05-14T06:24:18Z</time>
      </trkpt>
      <trkpt lat="44.33454" lon="2.60702">
        <ele>609.1325684</ele>
        <time>2014-05-14T06:24:23Z</time>
      </trkpt>
      <trkpt lat="44.33459" lon="2.60718">
        <ele>607.6906738</ele>
        <time>2014-05-14T06:24:28Z</time>
      </trkpt>
      <trkpt lat="44.33466" lon="2.60732">
        <ele>606.729248</ele>
        <time>2014-05-14T06:24:33Z</time>
      </trkpt>
      <trkpt lat="44.33479" lon="2.60744">
        <ele>607.2099609</ele>
        <time>2014-05-14T06:24:39Z</time>
      </trkpt>
      <trkpt lat="44.33492" lon="2.6075">
        <ele>607.6906738</ele>
        <time>2014-05-14T06:24:44Z</time>
      </trkpt>
      <trkpt lat="44.33501" lon="2.60758">
        <ele>606.729248</ele>
        <time>2014-05-14T06:24:48Z</time>
      </trkpt>
      <trkpt lat="44.33507" lon="2.6077">
        <ele>605.7680664</ele>
        <time>2014-05-14T06:24:52Z</time>
      </trkpt>
      <trkpt lat="44.33511" lon="2.60794">
        <ele>604.8066406</ele>
        <time>2014-05-14T06:24:58Z</time>
      </trkpt>
      <trkpt lat="44.33514" lon="2.60815">
        <ele>604.8066406</ele>
        <time>2014-05-14T06:25:04Z</time>
      </trkpt>
      <trkpt lat="44.33517" lon="2.60833">
        <ele>605.2873535</ele>
        <time>2014-05-14T06:25:09Z</time>
      </trkpt>
      <trkpt lat="44.33522" lon="2.60854">
        <ele>603.8452148</ele>
        <time>2014-05-14T06:25:15Z</time>
      </trkpt>
      <trkpt lat="44.3353" lon="2.6087">
        <ele>602.4030762</ele>
        <time>2014-05-14T06:25:20Z</time>
      </trkpt>
      <trkpt lat="44.33536" lon="2.60886">
        <ele>602.8837891</ele>
        <time>2014-05-14T06:25:25Z</time>
      </trkpt>
      <trkpt lat="44.33542" lon="2.60903">
        <ele>602.4030762</ele>
        <time>2014-05-14T06:25:30Z</time>
      </trkpt>
      <trkpt lat="44.33546" lon="2.60932">
        <ele>601.9226074</ele>
        <time>2014-05-14T06:25:37Z</time>
      </trkpt>
      <trkpt lat="44.33554" lon="2.60966">
        <ele>600</ele>
        <time>2014-05-14T06:25:44Z</time>
      </trkpt>
      <trkpt lat="44.3356" lon="2.60984">
        <ele>598.5578613</ele>
        <time>2014-05-14T06:25:48Z</time>
      </trkpt>
      <trkpt lat="44.33571" lon="2.61009">
        <ele>595.1933594</ele>
        <time>2014-05-14T06:25:54Z</time>
      </trkpt>
      <trkpt lat="44.3359" lon="2.61027">
        <ele>593.270752</ele>
        <time>2014-05-14T06:26:00Z</time>
      </trkpt>
      <trkpt lat="44.33605" lon="2.61037">
        <ele>592.7902832</ele>
        <time>2014-05-14T06:26:05Z</time>
      </trkpt>
      <trkpt lat="44.33619" lon="2.61049">
        <ele>592.7902832</ele>
        <time>2014-05-14T06:26:10Z</time>
      </trkpt>
      <trkpt lat="44.33632" lon="2.61062">
        <ele>593.270752</ele>
        <time>2014-05-14T06:26:15Z</time>
      </trkpt>
      <trkpt lat="44.33649" lon="2.61073">
        <ele>594.7126465</ele>
        <time>2014-05-14T06:26:21Z</time>
      </trkpt>
      <trkpt lat="44.33665" lon="2.61066">
        <ele>595.6740723</ele>
        <time>2014-05-14T06:26:26Z</time>
      </trkpt>
      <trkpt lat="44.33683" lon="2.61066">
        <ele>596.1547852</ele>
        <time>2014-05-14T06:26:31Z</time>
      </trkpt>
      <trkpt lat="44.33704" lon="2.61071">
        <ele>596.1547852</ele>
        <time>2014-05-14T06:26:37Z</time>
      </trkpt>
      <trkpt lat="44.33722" lon="2.6108">
        <ele>596.1547852</ele>
        <time>2014-05-14T06:26:43Z</time>
      </trkpt>
      <trkpt lat="44.33742" lon="2.61094">
        <ele>597.1159668</ele>
        <time>2014-05-14T06:26:50Z</time>
      </trkpt>
      <trkpt lat="44.3376" lon="2.61101">
        <ele>597.1159668</ele>
        <time>2014-05-14T06:26:56Z</time>
      </trkpt>
      <trkpt lat="44.33776" lon="2.61105">
        <ele>598.0773926</ele>
        <time>2014-05-14T06:27:01Z</time>
      </trkpt>
      <trkpt lat="44.33795" lon="2.61113">
        <ele>599.0385742</ele>
        <time>2014-05-14T06:27:07Z</time>
      </trkpt>
      <trkpt lat="44.33798" lon="2.61114">
        <ele>599.0385742</ele>
        <time>2014-05-14T06:27:08Z</time>
      </trkpt>
      <trkpt lat="44.33812" lon="2.61104">
        <ele>600</ele>
        <time>2014-05-14T06:27:13Z</time>
      </trkpt>
      <trkpt lat="44.33825" lon="2.61091">
        <ele>600</ele>
        <time>2014-05-14T06:27:18Z</time>
      </trkpt>
      <trkpt lat="44.33833" lon="2.61085">
        <ele>600</ele>
        <time>2014-05-14T06:27:21Z</time>
      </trkpt>
      <trkpt lat="44.33848" lon="2.61071">
        <ele>600</ele>
        <time>2014-05-14T06:27:27Z</time>
      </trkpt>
      <trkpt lat="44.33862" lon="2.61057">
        <ele>601.4418945</ele>
        <time>2014-05-14T06:27:33Z</time>
      </trkpt>
      <trkpt lat="44.33877" lon="2.61044">
        <ele>602.4030762</ele>
        <time>2014-05-14T06:27:39Z</time>
      </trkpt>
      <trkpt lat="44.33887" lon="2.61034">
        <ele>602.8837891</ele>
        <time>2014-05-14T06:27:43Z</time>
      </trkpt>
      <trkpt lat="44.33897" lon="2.61025">
        <ele>601.9226074</ele>
        <time>2014-05-14T06:27:47Z</time>
      </trkpt>
      <trkpt lat="44.33912" lon="2.61012">
        <ele>601.4418945</ele>
        <time>2014-05-14T06:27:53Z</time>
      </trkpt>
      <trkpt lat="44.33924" lon="2.61001">
        <ele>601.9226074</ele>
        <time>2014-05-14T06:27:58Z</time>
      </trkpt>
      <trkpt lat="44.33934" lon="2.60994">
        <ele>602.8837891</ele>
        <time>2014-05-14T06:28:02Z</time>
      </trkpt>
      <trkpt lat="44.3395" lon="2.60984">
        <ele>604.3261719</ele>
        <time>2014-05-14T06:28:08Z</time>
      </trkpt>
      <trkpt lat="44.33963" lon="2.60973">
        <ele>606.2485352</ele>
        <time>2014-05-14T06:28:13Z</time>
      </trkpt>
      <trkpt lat="44.33976" lon="2.60961">
        <ele>607.2099609</ele>
        <time>2014-05-14T06:28:18Z</time>
      </trkpt>
      <trkpt lat="44.33987" lon="2.60956">
        <ele>608.6518555</ele>
        <time>2014-05-14T06:28:22Z</time>
      </trkpt>
      <trkpt lat="44.34003" lon="2.60946">
        <ele>609.6132813</ele>
        <time>2014-05-14T06:28:28Z</time>
      </trkpt>
      <trkpt lat="44.34017" lon="2.60935">
        <ele>611.0551758</ele>
        <time>2014-05-14T06:28:33Z</time>
      </trkpt>
      <trkpt lat="44.34028" lon="2.60926">
        <ele>612.4970703</ele>
        <time>2014-05-14T06:28:37Z</time>
      </trkpt>
      <trkpt lat="44.34041" lon="2.60915">
        <ele>613.4584961</ele>
        <time>2014-05-14T06:28:42Z</time>
      </trkpt>
      <trkpt lat="44.34053" lon="2.60902">
        <ele>614.4196777</ele>
        <time>2014-05-14T06:28:47Z</time>
      </trkpt>
      <trkpt lat="44.34064" lon="2.60892">
        <ele>613.9389648</ele>
        <time>2014-05-14T06:28:51Z</time>
      </trkpt>
      <trkpt lat="44.34075" lon="2.60884">
        <ele>613.4584961</ele>
        <time>2014-05-14T06:28:55Z</time>
      </trkpt>
      <trkpt lat="44.3409" lon="2.60872">
        <ele>613.9389648</ele>
        <time>2014-05-14T06:29:01Z</time>
      </trkpt>
      <trkpt lat="44.34106" lon="2.60859">
        <ele>614.9003906</ele>
        <time>2014-05-14T06:29:07Z</time>
      </trkpt>
      <trkpt lat="44.34118" lon="2.60847">
        <ele>614.9003906</ele>
        <time>2014-05-14T06:29:12Z</time>
      </trkpt>
      <trkpt lat="44.34133" lon="2.60831">
        <ele>614.4196777</ele>
        <time>2014-05-14T06:29:18Z</time>
      </trkpt>
      <trkpt lat="44.34151" lon="2.60811">
        <ele>613.9389648</ele>
        <time>2014-05-14T06:29:25Z</time>
      </trkpt>
      <trkpt lat="44.34162" lon="2.60794">
        <ele>612.4970703</ele>
        <time>2014-05-14T06:29:30Z</time>
      </trkpt>
      <trkpt lat="44.34171" lon="2.60781">
        <ele>612.9777832</ele>
        <time>2014-05-14T06:29:34Z</time>
      </trkpt>
      <trkpt lat="44.34182" lon="2.60765">
        <ele>613.4584961</ele>
        <time>2014-05-14T06:29:39Z</time>
      </trkpt>
      <trkpt lat="44.3419" lon="2.60751">
        <ele>613.9389648</ele>
        <time>2014-05-14T06:29:43Z</time>
      </trkpt>
      <trkpt lat="44.34192" lon="2.60748">
        <ele>613.9389648</ele>
        <time>2014-05-14T06:29:44Z</time>
      </trkpt>
      <trkpt lat="44.34201" lon="2.60723">
        <ele>614.9003906</ele>
        <time>2014-05-14T06:29:50Z</time>
      </trkpt>
      <trkpt lat="44.34207" lon="2.60702">
        <ele>614.9003906</ele>
        <time>2014-05-14T06:29:55Z</time>
      </trkpt>
      <trkpt lat="44.34212" lon="2.60671">
        <ele>615.3811035</ele>
        <time>2014-05-14T06:30:01Z</time>
      </trkpt>
      <trkpt lat="44.34215" lon="2.60652">
        <ele>615.8618164</ele>
        <time>2014-05-14T06:30:05Z</time>
      </trkpt>
      <trkpt lat="44.34216" lon="2.60648">
        <ele>616.3422852</ele>
        <time>2014-05-14T06:30:06Z</time>
      </trkpt>
      <trkpt lat="44.34227" lon="2.60629">
        <ele>618.7456055</ele>
        <time>2014-05-14T06:30:12Z</time>
      </trkpt>
      <trkpt lat="44.34236" lon="2.60617">
        <ele>619.7070313</ele>
        <time>2014-05-14T06:30:16Z</time>
      </trkpt>
      <trkpt lat="44.34246" lon="2.60601">
        <ele>621.6296387</ele>
        <time>2014-05-14T06:30:21Z</time>
      </trkpt>
      <trkpt lat="44.34256" lon="2.60587">
        <ele>622.1103516</ele>
        <time>2014-05-14T06:30:26Z</time>
      </trkpt>
      <trkpt lat="44.34268" lon="2.60568">
        <ele>624.032959</ele>
        <time>2014-05-14T06:30:32Z</time>
      </trkpt>
      <trkpt lat="44.34282" lon="2.60548">
        <ele>624.9943848</ele>
        <time>2014-05-14T06:30:38Z</time>
      </trkpt>
      <trkpt lat="44.34296" lon="2.60529">
        <ele>626.9169922</ele>
        <time>2014-05-14T06:30:44Z</time>
      </trkpt>
      <trkpt lat="44.34308" lon="2.60507">
        <ele>628.3588867</ele>
        <time>2014-05-14T06:30:50Z</time>
      </trkpt>
      <trkpt lat="44.34319" lon="2.60482">
        <ele>628.8395996</ele>
        <time>2014-05-14T06:30:56Z</time>
      </trkpt>
      <trkpt lat="44.34328" lon="2.60463">
        <ele>630.2814941</ele>
        <time>2014-05-14T06:31:01Z</time>
      </trkpt>
      <trkpt lat="44.34338" lon="2.60443">
        <ele>631.7233887</ele>
        <time>2014-05-14T06:31:06Z</time>
      </trkpt>
      <trkpt lat="44.34349" lon="2.60424">
        <ele>632.2041016</ele>
        <time>2014-05-14T06:31:11Z</time>
      </trkpt>
      <trkpt lat="44.34362" lon="2.60404">
        <ele>632.6848145</ele>
        <time>2014-05-14T06:31:17Z</time>
      </trkpt>
      <trkpt lat="44.34372" lon="2.60385">
        <ele>634.126709</ele>
        <time>2014-05-14T06:31:22Z</time>
      </trkpt>
      <trkpt lat="44.34381" lon="2.60366">
        <ele>634.126709</ele>
        <time>2014-05-14T06:31:27Z</time>
      </trkpt>
      <trkpt lat="44.3439" lon="2.60346">
        <ele>633.6459961</ele>
        <time>2014-05-14T06:31:32Z</time>
      </trkpt>
      <trkpt lat="44.34398" lon="2.60325">
        <ele>633.1652832</ele>
        <time>2014-05-14T06:31:37Z</time>
      </trkpt>
      <trkpt lat="44.34409" lon="2.60306">
        <ele>632.2041016</ele>
        <time>2014-05-14T06:31:42Z</time>
      </trkpt>
      <trkpt lat="44.34417" lon="2.60294">
        <ele>631.2429199</ele>
        <time>2014-05-14T06:31:46Z</time>
      </trkpt>
      <trkpt lat="44.34422" lon="2.60286">
        <ele>631.2429199</ele>
        <time>2014-05-14T06:31:51Z</time>
      </trkpt>
      <trkpt lat="44.34429" lon="2.60276">
        <ele>632.2041016</ele>
        <time>2014-05-14T06:31:58Z</time>
      </trkpt>
      <trkpt lat="44.34432" lon="2.60271">
        <ele>631.7233887</ele>
        <time>2014-05-14T06:32:01Z</time>
      </trkpt>
      <trkpt lat="44.34438" lon="2.6026">
        <ele>630.762207</ele>
        <time>2014-05-14T06:32:07Z</time>
      </trkpt>
      <trkpt lat="44.34444" lon="2.60251">
        <ele>629.8007813</ele>
        <time>2014-05-14T06:32:12Z</time>
      </trkpt>
      <trkpt lat="44.34451" lon="2.60241">
        <ele>629.8007813</ele>
        <time>2014-05-14T06:32:18Z</time>
      </trkpt>
      <trkpt lat="44.34456" lon="2.60232">
        <ele>628.8395996</ele>
        <time>2014-05-14T06:32:23Z</time>
      </trkpt>
      <trkpt lat="44.34465" lon="2.60223">
        <ele>628.8395996</ele>
        <time>2014-05-14T06:32:30Z</time>
      </trkpt>
      <trkpt lat="44.3447" lon="2.60225">
        <ele>629.3200684</ele>
        <time>2014-05-14T06:32:35Z</time>
      </trkpt>
      <trkpt lat="44.34475" lon="2.60233">
        <ele>630.762207</ele>
        <time>2014-05-14T06:32:41Z</time>
      </trkpt>
      <trkpt lat="44.34476" lon="2.60239">
        <ele>631.2429199</ele>
        <time>2014-05-14T06:32:45Z</time>
      </trkpt>
      <trkpt lat="44.34476" lon="2.60242">
        <ele>631.7233887</ele>
        <time>2014-05-14T06:32:47Z</time>
      </trkpt>
      <trkpt lat="44.34477" lon="2.60251">
        <ele>630.762207</ele>
        <time>2014-05-14T06:32:52Z</time>
      </trkpt>
      <trkpt lat="44.34477" lon="2.60254">
        <ele>630.762207</ele>
        <time>2014-05-14T06:32:53Z</time>
      </trkpt>
      <trkpt lat="44.34478" lon="2.60268">
        <ele>631.7233887</ele>
        <time>2014-05-14T06:32:59Z</time>
      </trkpt>
      <trkpt lat="44.34479" lon="2.60286">
        <ele>631.7233887</ele>
        <time>2014-05-14T06:33:06Z</time>
      </trkpt>
      <trkpt lat="44.34481" lon="2.60298">
        <ele>631.7233887</ele>
        <time>2014-05-14T06:33:11Z</time>
      </trkpt>
      <trkpt lat="44.34485" lon="2.60316">
        <ele>632.2041016</ele>
        <time>2014-05-14T06:33:18Z</time>
      </trkpt>
      <trkpt lat="44.34489" lon="2.60337">
        <ele>634.126709</ele>
        <time>2014-05-14T06:33:26Z</time>
      </trkpt>
      <trkpt lat="44.34492" lon="2.60351">
        <ele>634.6074219</ele>
        <time>2014-05-14T06:33:31Z</time>
      </trkpt>
      <trkpt lat="44.34495" lon="2.60363">
        <ele>635.0881348</ele>
        <time>2014-05-14T06:33:36Z</time>
      </trkpt>
      <trkpt lat="44.34498" lon="2.60381">
        <ele>635.0881348</ele>
        <time>2014-05-14T06:33:43Z</time>
      </trkpt>
      <trkpt lat="44.34502" lon="2.60396">
        <ele>635.0881348</ele>
        <time>2014-05-14T06:33:49Z</time>
      </trkpt>
      <trkpt lat="44.34505" lon="2.60414">
        <ele>635.5686035</ele>
        <time>2014-05-14T06:33:56Z</time>
      </trkpt>
      <trkpt lat="44.34507" lon="2.60433">
        <ele>636.0495605</ele>
        <time>2014-05-14T06:34:03Z</time>
      </trkpt>
      <trkpt lat="44.3451" lon="2.60451">
        <ele>637.0107422</ele>
        <time>2014-05-14T06:34:10Z</time>
      </trkpt>
      <trkpt lat="44.34514" lon="2.60469">
        <ele>637.972168</ele>
        <time>2014-05-14T06:34:17Z</time>
      </trkpt>
      <trkpt lat="44.34517" lon="2.60485">
        <ele>637.972168</ele>
        <time>2014-05-14T06:34:23Z</time>
      </trkpt>
      <trkpt lat="44.34521" lon="2.60504">
        <ele>637.972168</ele>
        <time>2014-05-14T06:34:30Z</time>
      </trkpt>
      <trkpt lat="44.34525" lon="2.60528">
        <ele>636.0495605</ele>
        <time>2014-05-14T06:34:36Z</time>
      </trkpt>
      <trkpt lat="44.34531" lon="2.60558">
        <ele>634.126709</ele>
        <time>2014-05-14T06:34:42Z</time>
      </trkpt>
      <trkpt lat="44.34538" lon="2.60587">
        <ele>634.6074219</ele>
        <time>2014-05-14T06:34:48Z</time>
      </trkpt>
      <trkpt lat="44.34545" lon="2.60616">
        <ele>635.0881348</ele>
        <time>2014-05-14T06:34:54Z</time>
      </trkpt>
      <trkpt lat="44.34551" lon="2.60647">
        <ele>636.0495605</ele>
        <time>2014-05-14T06:35:00Z</time>
      </trkpt>
      <trkpt lat="44.34556" lon="2.60676">
        <ele>635.5686035</ele>
        <time>2014-05-14T06:35:06Z</time>
      </trkpt>
      <trkpt lat="44.3456" lon="2.60699">
        <ele>634.6074219</ele>
        <time>2014-05-14T06:35:11Z</time>
      </trkpt>
      <trkpt lat="44.34564" lon="2.60723">
        <ele>635.0881348</ele>
        <time>2014-05-14T06:35:16Z</time>
      </trkpt>
      <trkpt lat="44.34569" lon="2.60752">
        <ele>635.5686035</ele>
        <time>2014-05-14T06:35:22Z</time>
      </trkpt>
      <trkpt lat="44.34573" lon="2.60781">
        <ele>636.5302734</ele>
        <time>2014-05-14T06:35:28Z</time>
      </trkpt>
      <trkpt lat="44.34574" lon="2.60801">
        <ele>636.5302734</ele>
        <time>2014-05-14T06:35:32Z</time>
      </trkpt>
      <trkpt lat="44.34575" lon="2.60825">
        <ele>635.5686035</ele>
        <time>2014-05-14T06:35:37Z</time>
      </trkpt>
      <trkpt lat="44.34578" lon="2.60848">
        <ele>635.0881348</ele>
        <time>2014-05-14T06:35:42Z</time>
      </trkpt>
      <trkpt lat="44.34584" lon="2.60879">
        <ele>633.1652832</ele>
        <time>2014-05-14T06:35:49Z</time>
      </trkpt>
      <trkpt lat="44.3459" lon="2.60905">
        <ele>632.6848145</ele>
        <time>2014-05-14T06:35:55Z</time>
      </trkpt>
      <trkpt lat="44.34597" lon="2.60932">
        <ele>632.6848145</ele>
        <time>2014-05-14T06:36:01Z</time>
      </trkpt>
      <trkpt lat="44.34605" lon="2.60957">
        <ele>632.6848145</ele>
        <time>2014-05-14T06:36:07Z</time>
      </trkpt>
      <trkpt lat="44.34611" lon="2.60993">
        <ele>632.6848145</ele>
        <time>2014-05-14T06:36:15Z</time>
      </trkpt>
      <trkpt lat="44.34617" lon="2.61014">
        <ele>632.6848145</ele>
        <time>2014-05-14T06:36:20Z</time>
      </trkpt>
      <trkpt lat="44.34623" lon="2.61036">
        <ele>633.1652832</ele>
        <time>2014-05-14T06:36:25Z</time>
      </trkpt>
      <trkpt lat="44.34627" lon="2.61065">
        <ele>633.6459961</ele>
        <time>2014-05-14T06:36:31Z</time>
      </trkpt>
      <trkpt lat="44.3463" lon="2.61086">
        <ele>633.6459961</ele>
        <time>2014-05-14T06:36:36Z</time>
      </trkpt>
      <trkpt lat="44.34631" lon="2.61112">
        <ele>634.126709</ele>
        <time>2014-05-14T06:36:41Z</time>
      </trkpt>
      <trkpt lat="44.34633" lon="2.61136">
        <ele>633.1652832</ele>
        <time>2014-05-14T06:36:46Z</time>
      </trkpt>
      <trkpt lat="44.34635" lon="2.61161">
        <ele>633.6459961</ele>
        <time>2014-05-14T06:36:51Z</time>
      </trkpt>
      <trkpt lat="44.3464" lon="2.61186">
        <ele>636.0495605</ele>
        <time>2014-05-14T06:36:56Z</time>
      </trkpt>
      <trkpt lat="44.34644" lon="2.61209">
        <ele>635.5686035</ele>
        <time>2014-05-14T06:37:01Z</time>
      </trkpt>
      <trkpt lat="44.34645" lon="2.61233">
        <ele>634.6074219</ele>
        <time>2014-05-14T06:37:06Z</time>
      </trkpt>
      <trkpt lat="44.34647" lon="2.61257">
        <ele>633.6459961</ele>
        <time>2014-05-14T06:37:11Z</time>
      </trkpt>
      <trkpt lat="44.34652" lon="2.61288">
        <ele>632.2041016</ele>
        <time>2014-05-14T06:37:17Z</time>
      </trkpt>
      <trkpt lat="44.34651" lon="2.61318">
        <ele>631.2429199</ele>
        <time>2014-05-14T06:37:23Z</time>
      </trkpt>
      <trkpt lat="44.3465" lon="2.61343">
        <ele>631.2429199</ele>
        <time>2014-05-14T06:37:28Z</time>
      </trkpt>
      <trkpt lat="44.34647" lon="2.61369">
        <ele>630.762207</ele>
        <time>2014-05-14T06:37:33Z</time>
      </trkpt>
      <trkpt lat="44.34644" lon="2.61404">
        <ele>632.6848145</ele>
        <time>2014-05-14T06:37:40Z</time>
      </trkpt>
      <trkpt lat="44.34642" lon="2.61434">
        <ele>633.6459961</ele>
        <time>2014-05-14T06:37:46Z</time>
      </trkpt>
      <trkpt lat="44.3464" lon="2.6146">
        <ele>633.1652832</ele>
        <time>2014-05-14T06:37:51Z</time>
      </trkpt>
      <trkpt lat="44.34636" lon="2.61485">
        <ele>632.2041016</ele>
        <time>2014-05-14T06:37:56Z</time>
      </trkpt>
      <trkpt lat="44.34631" lon="2.61516">
        <ele>631.2429199</ele>
        <time>2014-05-14T06:38:02Z</time>
      </trkpt>
      <trkpt lat="44.34625" lon="2.61543">
        <ele>631.2429199</ele>
        <time>2014-05-14T06:38:08Z</time>
      </trkpt>
      <trkpt lat="44.34621" lon="2.61571">
        <ele>630.2814941</ele>
        <time>2014-05-14T06:38:14Z</time>
      </trkpt>
      <trkpt lat="44.34617" lon="2.61596">
        <ele>629.3200684</ele>
        <time>2014-05-14T06:38:19Z</time>
      </trkpt>
      <trkpt lat="44.3461" lon="2.61626">
        <ele>629.3200684</ele>
        <time>2014-05-14T06:38:25Z</time>
      </trkpt>
      <trkpt lat="44.34598" lon="2.61664">
        <ele>629.3200684</ele>
        <time>2014-05-14T06:38:33Z</time>
      </trkpt>
      <trkpt lat="44.3459" lon="2.6169">
        <ele>629.3200684</ele>
        <time>2014-05-14T06:38:39Z</time>
      </trkpt>
      <trkpt lat="44.34582" lon="2.61712">
        <ele>630.2814941</ele>
        <time>2014-05-14T06:38:44Z</time>
      </trkpt>
      <trkpt lat="44.34573" lon="2.61735">
        <ele>630.762207</ele>
        <time>2014-05-14T06:38:50Z</time>
      </trkpt>
      <trkpt lat="44.34563" lon="2.61754">
        <ele>631.7233887</ele>
        <time>2014-05-14T06:38:55Z</time>
      </trkpt>
      <trkpt lat="44.34554" lon="2.61775">
        <ele>631.2429199</ele>
        <time>2014-05-14T06:39:00Z</time>
      </trkpt>
      <trkpt lat="44.34546" lon="2.61801">
        <ele>631.2429199</ele>
        <time>2014-05-14T06:39:06Z</time>
      </trkpt>
      <trkpt lat="44.3454" lon="2.61834">
        <ele>630.2814941</ele>
        <time>2014-05-14T06:39:13Z</time>
      </trkpt>
      <trkpt lat="44.34536" lon="2.61859">
        <ele>631.2429199</ele>
        <time>2014-05-14T06:39:18Z</time>
      </trkpt>
      <trkpt lat="44.34532" lon="2.61889">
        <ele>632.2041016</ele>
        <time>2014-05-14T06:39:24Z</time>
      </trkpt>
      <trkpt lat="44.34528" lon="2.61914">
        <ele>631.7233887</ele>
        <time>2014-05-14T06:39:29Z</time>
      </trkpt>
      <trkpt lat="44.34526" lon="2.61938">
        <ele>631.7233887</ele>
        <time>2014-05-14T06:39:34Z</time>
      </trkpt>
      <trkpt lat="44.34525" lon="2.61969">
        <ele>631.7233887</ele>
        <time>2014-05-14T06:39:40Z</time>
      </trkpt>
      <trkpt lat="44.34526" lon="2.61984">
        <ele>631.2429199</ele>
        <time>2014-05-14T06:39:44Z</time>
      </trkpt>
      <trkpt lat="44.34528" lon="2.62">
        <ele>630.2814941</ele>
        <time>2014-05-14T06:39:51Z</time>
      </trkpt>
      <trkpt lat="44.3453" lon="2.62013">
        <ele>629.3200684</ele>
        <time>2014-05-14T06:39:57Z</time>
      </trkpt>
      <trkpt lat="44.34533" lon="2.62034">
        <ele>629.3200684</ele>
        <time>2014-05-14T06:40:05Z</time>
      </trkpt>
      <trkpt lat="44.34534" lon="2.62048">
        <ele>628.8395996</ele>
        <time>2014-05-14T06:40:10Z</time>
      </trkpt>
      <trkpt lat="44.34536" lon="2.62065">
        <ele>628.3588867</ele>
        <time>2014-05-14T06:40:16Z</time>
      </trkpt>
      <trkpt lat="44.34537" lon="2.62081">
        <ele>628.8395996</ele>
        <time>2014-05-14T06:40:22Z</time>
      </trkpt>
      <trkpt lat="44.34538" lon="2.62098">
        <ele>628.8395996</ele>
        <time>2014-05-14T06:40:29Z</time>
      </trkpt>
      <trkpt lat="44.34537" lon="2.62115">
        <ele>628.3588867</ele>
        <time>2014-05-14T06:40:35Z</time>
      </trkpt>
      <trkpt lat="44.34536" lon="2.62129">
        <ele>628.8395996</ele>
        <time>2014-05-14T06:40:40Z</time>
      </trkpt>
      <trkpt lat="44.34535" lon="2.62145">
        <ele>628.8395996</ele>
        <time>2014-05-14T06:40:45Z</time>
      </trkpt>
      <trkpt lat="44.34532" lon="2.62169">
        <ele>629.3200684</ele>
        <time>2014-05-14T06:40:53Z</time>
      </trkpt>
      <trkpt lat="44.3453" lon="2.62191">
        <ele>629.8007813</ele>
        <time>2014-05-14T06:41:00Z</time>
      </trkpt>
      <trkpt lat="44.3453" lon="2.6221">
        <ele>630.762207</ele>
        <time>2014-05-14T06:41:06Z</time>
      </trkpt>
      <trkpt lat="44.34529" lon="2.62226">
        <ele>631.2429199</ele>
        <time>2014-05-14T06:41:11Z</time>
      </trkpt>
      <trkpt lat="44.34527" lon="2.62241">
        <ele>630.762207</ele>
        <time>2014-05-14T06:41:16Z</time>
      </trkpt>
      <trkpt lat="44.34526" lon="2.62257">
        <ele>630.762207</ele>
        <time>2014-05-14T06:41:22Z</time>
      </trkpt>
      <trkpt lat="44.34525" lon="2.62273">
        <ele>630.762207</ele>
        <time>2014-05-14T06:41:28Z</time>
      </trkpt>
      <trkpt lat="44.34525" lon="2.6229">
        <ele>631.7233887</ele>
        <time>2014-05-14T06:41:34Z</time>
      </trkpt>
      <trkpt lat="44.34519" lon="2.62309">
        <ele>631.2429199</ele>
        <time>2014-05-14T06:41:41Z</time>
      </trkpt>
      <trkpt lat="44.3452" lon="2.62327">
        <ele>632.6848145</ele>
        <time>2014-05-14T06:41:47Z</time>
      </trkpt>
      <trkpt lat="44.3452" lon="2.62345">
        <ele>632.2041016</ele>
        <time>2014-05-14T06:41:53Z</time>
      </trkpt>
      <trkpt lat="44.34517" lon="2.6236">
        <ele>632.2041016</ele>
        <time>2014-05-14T06:41:58Z</time>
      </trkpt>
      <trkpt lat="44.34515" lon="2.62375">
        <ele>631.2429199</ele>
        <time>2014-05-14T06:42:03Z</time>
      </trkpt>
      <trkpt lat="44.34512" lon="2.62401">
        <ele>631.2429199</ele>
        <time>2014-05-14T06:42:09Z</time>
      </trkpt>
      <trkpt lat="44.34511" lon="2.62429">
        <ele>631.2429199</ele>
        <time>2014-05-14T06:42:14Z</time>
      </trkpt>
      <trkpt lat="44.34509" lon="2.62463">
        <ele>629.8007813</ele>
        <time>2014-05-14T06:42:20Z</time>
      </trkpt>
      <trkpt lat="44.34506" lon="2.62499">
        <ele>629.8007813</ele>
        <time>2014-05-14T06:42:27Z</time>
      </trkpt>
      <trkpt lat="44.34504" lon="2.62529">
        <ele>629.8007813</ele>
        <time>2014-05-14T06:42:33Z</time>
      </trkpt>
      <trkpt lat="44.34501" lon="2.62553">
        <ele>630.762207</ele>
        <time>2014-05-14T06:42:38Z</time>
      </trkpt>
      <trkpt lat="44.34497" lon="2.62576">
        <ele>631.2429199</ele>
        <time>2014-05-14T06:42:43Z</time>
      </trkpt>
      <trkpt lat="44.34492" lon="2.62604">
        <ele>631.7233887</ele>
        <time>2014-05-14T06:42:49Z</time>
      </trkpt>
      <trkpt lat="44.34488" lon="2.62627">
        <ele>632.6848145</ele>
        <time>2014-05-14T06:42:54Z</time>
      </trkpt>
      <trkpt lat="44.34483" lon="2.62665">
        <ele>633.6459961</ele>
        <time>2014-05-14T06:43:02Z</time>
      </trkpt>
      <trkpt lat="44.3448" lon="2.62686">
        <ele>633.1652832</ele>
        <time>2014-05-14T06:43:07Z</time>
      </trkpt>
      <trkpt lat="44.34478" lon="2.62709">
        <ele>633.1652832</ele>
        <time>2014-05-14T06:43:12Z</time>
      </trkpt>
      <trkpt lat="44.34473" lon="2.62737">
        <ele>632.6848145</ele>
        <time>2014-05-14T06:43:18Z</time>
      </trkpt>
      <trkpt lat="44.3447" lon="2.62761">
        <ele>632.6848145</ele>
        <time>2014-05-14T06:43:23Z</time>
      </trkpt>
      <trkpt lat="44.34467" lon="2.62788">
        <ele>632.6848145</ele>
        <time>2014-05-14T06:43:28Z</time>
      </trkpt>
      <trkpt lat="44.34465" lon="2.62813">
        <ele>633.1652832</ele>
        <time>2014-05-14T06:43:33Z</time>
      </trkpt>
      <trkpt lat="44.34463" lon="2.62838">
        <ele>634.126709</ele>
        <time>2014-05-14T06:43:38Z</time>
      </trkpt>
      <trkpt lat="44.34461" lon="2.62863">
        <ele>634.6074219</ele>
        <time>2014-05-14T06:43:43Z</time>
      </trkpt>
      <trkpt lat="44.34459" lon="2.62892">
        <ele>634.126709</ele>
        <time>2014-05-14T06:43:49Z</time>
      </trkpt>
      <trkpt lat="44.34458" lon="2.62915">
        <ele>634.126709</ele>
        <time>2014-05-14T06:43:54Z</time>
      </trkpt>
      <trkpt lat="44.34458" lon="2.62945">
        <ele>635.0881348</ele>
        <time>2014-05-14T06:44:00Z</time>
      </trkpt>
      <trkpt lat="44.34454" lon="2.62972">
        <ele>636.0495605</ele>
        <time>2014-05-14T06:44:06Z</time>
      </trkpt>
      <trkpt lat="44.34448" lon="2.63002">
        <ele>637.0107422</ele>
        <time>2014-05-14T06:44:12Z</time>
      </trkpt>
      <trkpt lat="44.34444" lon="2.63023">
        <ele>637.972168</ele>
        <time>2014-05-14T06:44:17Z</time>
      </trkpt>
      <trkpt lat="44.34437" lon="2.63053">
        <ele>638.4528809</ele>
        <time>2014-05-14T06:44:23Z</time>
      </trkpt>
      <trkpt lat="44.3443" lon="2.63065">
        <ele>638.9335938</ele>
        <time>2014-05-14T06:44:26Z</time>
      </trkpt>
      <trkpt lat="44.34417" lon="2.63078">
        <ele>638.9335938</ele>
        <time>2014-05-14T06:44:30Z</time>
      </trkpt>
      <trkpt lat="44.344" lon="2.63093">
        <ele>639.4140625</ele>
        <time>2014-05-14T06:44:35Z</time>
      </trkpt>
      <trkpt lat="44.34396" lon="2.63096">
        <ele>639.4140625</ele>
        <time>2014-05-14T06:44:36Z</time>
      </trkpt>
      <trkpt lat="44.34378" lon="2.6312">
        <ele>640.3754883</ele>
        <time>2014-05-14T06:44:43Z</time>
      </trkpt>
      <trkpt lat="44.3437" lon="2.63143">
        <ele>641.3366699</ele>
        <time>2014-05-14T06:44:48Z</time>
      </trkpt>
      <trkpt lat="44.34364" lon="2.6316">
        <ele>641.3366699</ele>
        <time>2014-05-14T06:44:52Z</time>
      </trkpt>
      <trkpt lat="44.34355" lon="2.63184">
        <ele>641.3366699</ele>
        <time>2014-05-14T06:44:58Z</time>
      </trkpt>
      <trkpt lat="44.34344" lon="2.63208">
        <ele>642.2980957</ele>
        <time>2014-05-14T06:45:04Z</time>
      </trkpt>
      <trkpt lat="44.34337" lon="2.63225">
        <ele>642.7788086</ele>
        <time>2014-05-14T06:45:08Z</time>
      </trkpt>
      <trkpt lat="44.34329" lon="2.63245">
        <ele>641.8173828</ele>
        <time>2014-05-14T06:45:13Z</time>
      </trkpt>
      <trkpt lat="44.34318" lon="2.63268">
        <ele>642.2980957</ele>
        <time>2014-05-14T06:45:19Z</time>
      </trkpt>
      <trkpt lat="44.34305" lon="2.63268">
        <ele>641.8173828</ele>
        <time>2014-05-14T06:45:23Z</time>
      </trkpt>
      <trkpt lat="44.34294" lon="2.63254">
        <ele>641.8173828</ele>
        <time>2014-05-14T06:45:28Z</time>
      </trkpt>
      <trkpt lat="44.34287" lon="2.63244">
        <ele>641.3366699</ele>
        <time>2014-05-14T06:45:31Z</time>
      </trkpt>
      <trkpt lat="44.34269" lon="2.63225">
        <ele>640.855957</ele>
        <time>2014-05-14T06:45:38Z</time>
      </trkpt>
      <trkpt lat="44.34258" lon="2.63214">
        <ele>640.855957</ele>
        <time>2014-05-14T06:45:42Z</time>
      </trkpt>
      <trkpt lat="44.3425" lon="2.63208">
        <ele>641.8173828</ele>
        <time>2014-05-14T06:45:48Z</time>
      </trkpt>
      <trkpt lat="44.34243" lon="2.63202">
        <ele>640.855957</ele>
        <time>2014-05-14T06:45:54Z</time>
      </trkpt>
      <trkpt lat="44.34234" lon="2.63194">
        <ele>640.855957</ele>
        <time>2014-05-14T06:46:01Z</time>
      </trkpt>
      <trkpt lat="44.34225" lon="2.63187">
        <ele>641.8173828</ele>
        <time>2014-05-14T06:46:07Z</time>
      </trkpt>
      <trkpt lat="44.34216" lon="2.63181">
        <ele>643.2592773</ele>
        <time>2014-05-14T06:46:13Z</time>
      </trkpt>
      <trkpt lat="44.34205" lon="2.63173">
        <ele>643.7399902</ele>
        <time>2014-05-14T06:46:20Z</time>
      </trkpt>
      <trkpt lat="44.34196" lon="2.63169">
        <ele>643.7399902</ele>
        <time>2014-05-14T06:46:25Z</time>
      </trkpt>
      <trkpt lat="44.34185" lon="2.63163">
        <ele>642.2980957</ele>
        <time>2014-05-14T06:46:32Z</time>
      </trkpt>
      <trkpt lat="44.34183" lon="2.63161">
        <ele>641.8173828</ele>
        <time>2014-05-14T06:46:33Z</time>
      </trkpt>
      <trkpt lat="44.34172" lon="2.63158">
        <ele>640.3754883</ele>
        <time>2014-05-14T06:46:39Z</time>
      </trkpt>
      <trkpt lat="44.34169" lon="2.63156">
        <ele>640.3754883</ele>
        <time>2014-05-14T06:46:41Z</time>
      </trkpt>
      <trkpt lat="44.34158" lon="2.63151">
        <ele>641.3366699</ele>
        <time>2014-05-14T06:46:47Z</time>
      </trkpt>
      <trkpt lat="44.34155" lon="2.63149">
        <ele>642.2980957</ele>
        <time>2014-05-14T06:46:49Z</time>
      </trkpt>
      <trkpt lat="44.34145" lon="2.63144">
        <ele>644.2207031</ele>
        <time>2014-05-14T06:46:54Z</time>
      </trkpt>
      <trkpt lat="44.34139" lon="2.63142">
        <ele>644.7011719</ele>
        <time>2014-05-14T06:46:57Z</time>
      </trkpt>
      <trkpt lat="44.34129" lon="2.63136">
        <ele>646.1433105</ele>
        <time>2014-05-14T06:47:02Z</time>
      </trkpt>
      <trkpt lat="44.34118" lon="2.63128">
        <ele>648.065918</ele>
        <time>2014-05-14T06:47:08Z</time>
      </trkpt>
      <trkpt lat="44.34105" lon="2.63122">
        <ele>649.5078125</ele>
        <time>2014-05-14T06:47:14Z</time>
      </trkpt>
      <trkpt lat="44.34095" lon="2.63114">
        <ele>649.5078125</ele>
        <time>2014-05-14T06:47:19Z</time>
      </trkpt>
      <trkpt lat="44.34092" lon="2.63109">
        <ele>649.5078125</ele>
        <time>2014-05-14T06:47:21Z</time>
      </trkpt>
      <trkpt lat="44.34085" lon="2.63105">
        <ele>649.5078125</ele>
        <time>2014-05-14T06:47:25Z</time>
      </trkpt>
      <trkpt lat="44.34074" lon="2.63098">
        <ele>650.949707</ele>
        <time>2014-05-14T06:47:31Z</time>
      </trkpt>
      <trkpt lat="44.34066" lon="2.63091">
        <ele>651.9111328</ele>
        <time>2014-05-14T06:47:35Z</time>
      </trkpt>
      <trkpt lat="44.34057" lon="2.63085">
        <ele>652.8725586</ele>
        <time>2014-05-14T06:47:39Z</time>
      </trkpt>
      <trkpt lat="44.34054" lon="2.6308">
        <ele>653.3532715</ele>
        <time>2014-05-14T06:47:41Z</time>
      </trkpt>
      <trkpt lat="44.34046" lon="2.63071">
        <ele>654.795166</ele>
        <time>2014-05-14T06:47:46Z</time>
      </trkpt>
      <trkpt lat="44.34035" lon="2.63066">
        <ele>653.8339844</ele>
        <time>2014-05-14T06:47:51Z</time>
      </trkpt>
      <trkpt lat="44.34032" lon="2.63063">
        <ele>654.3146973</ele>
        <time>2014-05-14T06:47:53Z</time>
      </trkpt>
      <trkpt lat="44.3402" lon="2.63056">
        <ele>654.3146973</ele>
        <time>2014-05-14T06:47:59Z</time>
      </trkpt>
      <trkpt lat="44.34014" lon="2.63052">
        <ele>655.2758789</ele>
        <time>2014-05-14T06:48:03Z</time>
      </trkpt>
      <trkpt lat="44.34004" lon="2.63045">
        <ele>655.7565918</ele>
        <time>2014-05-14T06:48:08Z</time>
      </trkpt>
      <trkpt lat="44.33994" lon="2.63039">
        <ele>655.7565918</ele>
        <time>2014-05-14T06:48:13Z</time>
      </trkpt>
      <trkpt lat="44.33985" lon="2.63031">
        <ele>654.795166</ele>
        <time>2014-05-14T06:48:18Z</time>
      </trkpt>
      <trkpt lat="44.33976" lon="2.63024">
        <ele>654.795166</ele>
        <time>2014-05-14T06:48:22Z</time>
      </trkpt>
      <trkpt lat="44.33969" lon="2.63016">
        <ele>654.795166</ele>
        <time>2014-05-14T06:48:26Z</time>
      </trkpt>
      <trkpt lat="44.3396" lon="2.63007">
        <ele>655.2758789</ele>
        <time>2014-05-14T06:48:30Z</time>
      </trkpt>
      <trkpt lat="44.33956" lon="2.63005">
        <ele>656.2370605</ele>
        <time>2014-05-14T06:48:32Z</time>
      </trkpt>
      <trkpt lat="44.3394" lon="2.62997">
        <ele>659.1210938</ele>
        <time>2014-05-14T06:48:38Z</time>
      </trkpt>
      <trkpt lat="44.33927" lon="2.62985">
        <ele>662.9663086</ele>
        <time>2014-05-14T06:48:44Z</time>
      </trkpt>
      <trkpt lat="44.33918" lon="2.62981">
        <ele>664.888916</ele>
        <time>2014-05-14T06:48:48Z</time>
      </trkpt>
      <trkpt lat="44.33908" lon="2.62972">
        <ele>664.888916</ele>
        <time>2014-05-14T06:48:53Z</time>
      </trkpt>
      <trkpt lat="44.33899" lon="2.62962">
        <ele>665.3696289</ele>
        <time>2014-05-14T06:48:58Z</time>
      </trkpt>
      <trkpt lat="44.33897" lon="2.62961">
        <ele>665.8503418</ele>
        <time>2014-05-14T06:48:59Z</time>
      </trkpt>
      <trkpt lat="44.33884" lon="2.62947">
        <ele>666.3308105</ele>
        <time>2014-05-14T06:49:06Z</time>
      </trkpt>
      <trkpt lat="44.33882" lon="2.62946">
        <ele>666.3308105</ele>
        <time>2014-05-14T06:49:07Z</time>
      </trkpt>
      <trkpt lat="44.33874" lon="2.62954">
        <ele>666.8115234</ele>
        <time>2014-05-14T06:49:12Z</time>
      </trkpt>
      <trkpt lat="44.33868" lon="2.62971">
        <ele>665.8503418</ele>
        <time>2014-05-14T06:49:17Z</time>
      </trkpt>
      <trkpt lat="44.33862" lon="2.62992">
        <ele>664.4082031</ele>
        <time>2014-05-14T06:49:23Z</time>
      </trkpt>
      <trkpt lat="44.33859" lon="2.63001">
        <ele>664.4082031</ele>
        <time>2014-05-14T06:49:26Z</time>
      </trkpt>
      <trkpt lat="44.33856" lon="2.63017">
        <ele>663.9274902</ele>
        <time>2014-05-14T06:49:31Z</time>
      </trkpt>
      <trkpt lat="44.3385" lon="2.63037">
        <ele>662.4855957</ele>
        <time>2014-05-14T06:49:37Z</time>
      </trkpt>
      <trkpt lat="44.33849" lon="2.6304">
        <ele>663.4470215</ele>
        <time>2014-05-14T06:49:38Z</time>
      </trkpt>
      <trkpt lat="44.33845" lon="2.63058">
        <ele>663.4470215</ele>
        <time>2014-05-14T06:49:43Z</time>
      </trkpt>
      <trkpt lat="44.33841" lon="2.63071">
        <ele>664.888916</ele>
        <time>2014-05-14T06:49:48Z</time>
      </trkpt>
      <trkpt lat="44.33837" lon="2.63087">
        <ele>666.3308105</ele>
        <time>2014-05-14T06:49:53Z</time>
      </trkpt>
      <trkpt lat="44.33835" lon="2.63102">
        <ele>667.7727051</ele>
        <time>2014-05-14T06:49:58Z</time>
      </trkpt>
      <trkpt lat="44.33833" lon="2.63117">
        <ele>669.2150879</ele>
        <time>2014-05-14T06:50:03Z</time>
      </trkpt>
      <trkpt lat="44.33831" lon="2.63122">
        <ele>669.2150879</ele>
        <time>2014-05-14T06:50:05Z</time>
      </trkpt>
      <trkpt lat="44.33822" lon="2.63127">
        <ele>669.2150879</ele>
        <time>2014-05-14T06:50:09Z</time>
      </trkpt>
      <trkpt lat="44.33808" lon="2.63126">
        <ele>667.7727051</ele>
        <time>2014-05-14T06:50:15Z</time>
      </trkpt>
      <trkpt lat="44.33796" lon="2.63121">
        <ele>666.8115234</ele>
        <time>2014-05-14T06:50:20Z</time>
      </trkpt>
      <trkpt lat="44.33785" lon="2.63116">
        <ele>664.888916</ele>
        <time>2014-05-14T06:50:25Z</time>
      </trkpt>
      <trkpt lat="44.33778" lon="2.63114">
        <ele>664.4082031</ele>
        <time>2014-05-14T06:50:28Z</time>
      </trkpt>
      <trkpt lat="44.33768" lon="2.63107">
        <ele>661.5244141</ele>
        <time>2014-05-14T06:50:33Z</time>
      </trkpt>
      <trkpt lat="44.33761" lon="2.63103">
        <ele>659.1210938</ele>
        <time>2014-05-14T06:50:36Z</time>
      </trkpt>
      <trkpt lat="44.33749" lon="2.63095">
        <ele>655.7565918</ele>
        <time>2014-05-14T06:50:42Z</time>
      </trkpt>
      <trkpt lat="44.33736" lon="2.63091">
        <ele>654.3146973</ele>
        <time>2014-05-14T06:50:47Z</time>
      </trkpt>
      <trkpt lat="44.33724" lon="2.63088">
        <ele>654.3146973</ele>
        <time>2014-05-14T06:50:52Z</time>
      </trkpt>
      <trkpt lat="44.33721" lon="2.63087">
        <ele>654.3146973</ele>
        <time>2014-05-14T06:50:53Z</time>
      </trkpt>
      <trkpt lat="44.33708" lon="2.63082">
        <ele>652.3918457</ele>
        <time>2014-05-14T06:50:58Z</time>
      </trkpt>
      <trkpt lat="44.33706" lon="2.63082">
        <ele>651.9111328</ele>
        <time>2014-05-14T06:50:59Z</time>
      </trkpt>
      <trkpt lat="44.33703" lon="2.63067">
        <ele>651.9111328</ele>
        <time>2014-05-14T06:51:03Z</time>
      </trkpt>
      <trkpt lat="44.33708" lon="2.63039">
        <ele>650.4692383</ele>
        <time>2014-05-14T06:51:11Z</time>
      </trkpt>
      <trkpt lat="44.33711" lon="2.63025">
        <ele>649.5078125</ele>
        <time>2014-05-14T06:51:15Z</time>
      </trkpt>
      <trkpt lat="44.33713" lon="2.63015">
        <ele>650.4692383</ele>
        <time>2014-05-14T06:51:18Z</time>
      </trkpt>
      <trkpt lat="44.33716" lon="2.63014">
        <ele>651.4304199</ele>
        <time>2014-05-14T06:51:23Z</time>
      </trkpt>
      <trkpt lat="44.33715" lon="2.63012">
        <ele>651.9111328</ele>
        <time>2014-05-14T06:51:26Z</time>
      </trkpt>
      <trkpt lat="44.33718" lon="2.6299">
        <ele>652.3918457</ele>
        <time>2014-05-14T06:51:33Z</time>
      </trkpt>
      <trkpt lat="44.33721" lon="2.6297">
        <ele>653.8339844</ele>
        <time>2014-05-14T06:51:39Z</time>
      </trkpt>
      <trkpt lat="44.33723" lon="2.62953">
        <ele>654.3146973</ele>
        <time>2014-05-14T06:51:44Z</time>
      </trkpt>
      <trkpt lat="44.33716" lon="2.62947">
        <ele>653.8339844</ele>
        <time>2014-05-14T06:51:48Z</time>
      </trkpt>
      <trkpt lat="44.337" lon="2.6294">
        <ele>650.949707</ele>
        <time>2014-05-14T06:51:54Z</time>
      </trkpt>
      <trkpt lat="44.33698" lon="2.62938">
        <ele>650.949707</ele>
        <time>2014-05-14T06:51:55Z</time>
      </trkpt>
      <trkpt lat="44.3369" lon="2.62931">
        <ele>649.5078125</ele>
        <time>2014-05-14T06:51:59Z</time>
      </trkpt>
      <trkpt lat="44.33684" lon="2.6293">
        <ele>649.0270996</ele>
        <time>2014-05-14T06:52:01Z</time>
      </trkpt>
      <trkpt lat="44.33673" lon="2.62914">
        <ele>648.5463867</ele>
        <time>2014-05-14T06:52:07Z</time>
      </trkpt>
      <trkpt lat="44.33667" lon="2.62898">
        <ele>648.065918</ele>
        <time>2014-05-14T06:52:12Z</time>
      </trkpt>
      <trkpt lat="44.33655" lon="2.62897">
        <ele>648.065918</ele>
        <time>2014-05-14T06:52:17Z</time>
      </trkpt>
      <trkpt lat="44.33643" lon="2.629">
        <ele>649.5078125</ele>
        <time>2014-05-14T06:52:22Z</time>
      </trkpt>
      <trkpt lat="44.33631" lon="2.62902">
        <ele>649.9885254</ele>
        <time>2014-05-14T06:52:27Z</time>
      </trkpt>
      <trkpt lat="44.33616" lon="2.62902">
        <ele>649.5078125</ele>
        <time>2014-05-14T06:52:33Z</time>
      </trkpt>
      <trkpt lat="44.33611" lon="2.62901">
        <ele>649.5078125</ele>
        <time>2014-05-14T06:52:35Z</time>
      </trkpt>
      <trkpt lat="44.33595" lon="2.62898">
        <ele>649.0270996</ele>
        <time>2014-05-14T06:52:41Z</time>
      </trkpt>
      <trkpt lat="44.33582" lon="2.62896">
        <ele>649.0270996</ele>
        <time>2014-05-14T06:52:46Z</time>
      </trkpt>
      <trkpt lat="44.33574" lon="2.62895">
        <ele>648.5463867</ele>
        <time>2014-05-14T06:52:50Z</time>
      </trkpt>
      <trkpt lat="44.33563" lon="2.62904">
        <ele>648.065918</ele>
        <time>2014-05-14T06:52:56Z</time>
      </trkpt>
      <trkpt lat="44.33565" lon="2.62921">
        <ele>647.5852051</ele>
        <time>2014-05-14T06:53:02Z</time>
      </trkpt>
      <trkpt lat="44.33566" lon="2.62922">
        <ele>647.1044922</ele>
        <time>2014-05-14T06:53:03Z</time>
      </trkpt>
      <trkpt lat="44.3357" lon="2.62925">
        <ele>647.1044922</ele>
        <time>2014-05-14T06:53:06Z</time>
      </trkpt>
    </trkseg>
  </trk>
</gpx>